﻿<?xml version="1.0" encoding="utf-8"?><gpx creator="Garmin Desktop App" version="1.1" xsi:schemaLocation="http://www.topografix.com/GPX/1/1 http://www.topografix.com/GPX/1/1/gpx.xsd http://www.garmin.com/xmlschemas/WaypointExtension/v1 http://www8.garmin.com/xmlschemas/WaypointExtensionv1.xsd http://www.garmin.com/xmlschemas/TrackPointExtension/v1 http://www.garmin.com/xmlschemas/TrackPointExtensionv1.xsd http://www.garmin.com/xmlschemas/GpxExtensions/v3 http://www8.garmin.com/xmlschemas/GpxExtensionsv3.xsd http://www.garmin.com/xmlschemas/ActivityExtension/v1 http://www8.garmin.com/xmlschemas/ActivityExtensionv1.xsd http://www.garmin.com/xmlschemas/AdventuresExtensions/v1 http://www8.garmin.com/xmlschemas/AdventuresExtensionv1.xsd http://www.garmin.com/xmlschemas/PressureExtension/v1 http://www.garmin.com/xmlschemas/PressureExtensionv1.xsd http://www.garmin.com/xmlschemas/TripExtensions/v1 http://www.garmin.com/xmlschemas/TripExtensionsv1.xsd http://www.garmin.com/xmlschemas/TripMetaDataExtensions/v1 http://www.garmin.com/xmlschemas/TripMetaDataExtensionsv1.xsd http://www.garmin.com/xmlschemas/ViaPointTransportationModeExtensions/v1 http://www.garmin.com/xmlschemas/ViaPointTransportationModeExtensionsv1.xsd http://www.garmin.com/xmlschemas/CreationTimeExtension/v1 http://www.garmin.com/xmlschemas/CreationTimeExtensionsv1.xsd http://www.garmin.com/xmlschemas/AccelerationExtension/v1 http://www.garmin.com/xmlschemas/AccelerationExtensionv1.xsd http://www.garmin.com/xmlschemas/PowerExtension/v1 http://www.garmin.com/xmlschemas/PowerExtensionv1.xsd http://www.garmin.com/xmlschemas/VideoExtension/v1 http://www.garmin.com/xmlschemas/VideoExtensionv1.xsd" xmlns="http://www.topografix.com/GPX/1/1" xmlns:xsi="http://www.w3.org/2001/XMLSchema-instance" xmlns:wptx1="http://www.garmin.com/xmlschemas/WaypointExtension/v1" xmlns:gpxtrx="http://www.garmin.com/xmlschemas/GpxExtensions/v3" xmlns:gpxtpx="http://www.garmin.com/xmlschemas/TrackPointExtension/v1" xmlns:gpxx="http://www.garmin.com/xmlschemas/GpxExtensions/v3" xmlns:trp="http://www.garmin.com/xmlschemas/TripExtensions/v1" xmlns:adv="http://www.garmin.com/xmlschemas/AdventuresExtensions/v1" xmlns:prs="http://www.garmin.com/xmlschemas/PressureExtension/v1" xmlns:tmd="http://www.garmin.com/xmlschemas/TripMetaDataExtensions/v1" xmlns:vptm="http://www.garmin.com/xmlschemas/ViaPointTransportationModeExtensions/v1" xmlns:ctx="http://www.garmin.com/xmlschemas/CreationTimeExtension/v1" xmlns:gpxacc="http://www.garmin.com/xmlschemas/AccelerationExtension/v1" xmlns:gpxpx="http://www.garmin.com/xmlschemas/PowerExtension/v1" xmlns:vidx1="http://www.garmin.com/xmlschemas/VideoExtension/v1">

  <metadata>
    <link href="http://www.garmin.com">
      <text>Garmin International</text>
    </link>
    <time>2022-07-17T07:10:56Z</time>
    <bounds maxlat="47.133659971877933" maxlon="-0.152030037716031" minlat="47.129289982840419" minlon="-0.158679988235235" />
  </metadata>

  <trk>
    <name>Montreuil Belley village</name>
    <extensions>
      <gpxx:TrackExtension>
        <gpxx:DisplayColor>Blue</gpxx:DisplayColor>
      </gpxx:TrackExtension>
    </extensions>
    <trkseg>
      <trkpt lat="47.132809963077307" lon="-0.158210014924407">
        <ele>27</ele>
        <time>2022-07-12T09:21:50Z</time>
      </trkpt>
      <trkpt lat="47.132820021361113" lon="-0.158200040459633">
        <ele>27</ele>
        <time>2022-07-12T09:21:53Z</time>
      </trkpt>
      <trkpt lat="47.132850028574467" lon="-0.158170033246279">
        <ele>24</ele>
        <time>2022-07-12T09:21:57Z</time>
      </trkpt>
      <trkpt lat="47.132869977504015" lon="-0.158150000497699">
        <ele>21</ele>
        <time>2022-07-12T09:22:00Z</time>
      </trkpt>
      <trkpt lat="47.132860003039241" lon="-0.158140026032925">
        <ele>19</ele>
        <time>2022-07-12T09:22:06Z</time>
      </trkpt>
      <trkpt lat="47.132860003039241" lon="-0.158159974962473">
        <ele>18</ele>
        <time>2022-07-12T09:22:16Z</time>
      </trkpt>
      <trkpt lat="47.132880035787821" lon="-0.158189982175827">
        <ele>18</ele>
        <time>2022-07-12T09:22:19Z</time>
      </trkpt>
      <trkpt lat="47.132899984717369" lon="-0.158229963853955">
        <ele>17</ele>
        <time>2022-07-12T09:22:22Z</time>
      </trkpt>
      <trkpt lat="47.132920017465949" lon="-0.158259971067309">
        <ele>17</ele>
        <time>2022-07-12T09:22:25Z</time>
      </trkpt>
      <trkpt lat="47.132959999144077" lon="-0.158300036564469">
        <ele>17</ele>
        <time>2022-07-12T09:22:28Z</time>
      </trkpt>
      <trkpt lat="47.132990006357431" lon="-0.158319985494018">
        <ele>17</ele>
        <time>2022-07-12T09:22:30Z</time>
      </trkpt>
      <trkpt lat="47.133020013570786" lon="-0.158329959958792">
        <ele>17</ele>
        <time>2022-07-12T09:22:32Z</time>
      </trkpt>
      <trkpt lat="47.13305002078414" lon="-0.158329959958792">
        <ele>17</ele>
        <time>2022-07-12T09:22:35Z</time>
      </trkpt>
      <trkpt lat="47.133090002462268" lon="-0.158329959958792">
        <ele>17</ele>
        <time>2022-07-12T09:22:37Z</time>
      </trkpt>
      <trkpt lat="47.133120009675622" lon="-0.158319985494018">
        <ele>17</ele>
        <time>2022-07-12T09:22:39Z</time>
      </trkpt>
      <trkpt lat="47.133150016888976" lon="-0.158310011029243">
        <ele>17</ele>
        <time>2022-07-12T09:22:41Z</time>
      </trkpt>
      <trkpt lat="47.13318002410233" lon="-0.158300036564469">
        <ele>17</ele>
        <time>2022-07-12T09:22:43Z</time>
      </trkpt>
      <trkpt lat="47.133210031315684" lon="-0.158270029351115">
        <ele>19</ele>
        <time>2022-07-12T09:22:46Z</time>
      </trkpt>
      <trkpt lat="47.133220005780458" lon="-0.158229963853955">
        <ele>20</ele>
        <time>2022-07-12T09:23:05Z</time>
      </trkpt>
      <trkpt lat="47.133220005780458" lon="-0.158180007711053">
        <ele>21</ele>
        <time>2022-07-12T09:23:08Z</time>
      </trkpt>
      <trkpt lat="47.133210031315684" lon="-0.158140026032925">
        <ele>21</ele>
        <time>2022-07-12T09:23:10Z</time>
      </trkpt>
      <trkpt lat="47.133210031315684" lon="-0.158089986070991">
        <ele>22</ele>
        <time>2022-07-12T09:23:12Z</time>
      </trkpt>
      <trkpt lat="47.133210031315684" lon="-0.158040029928088">
        <ele>22</ele>
        <time>2022-07-12T09:23:15Z</time>
      </trkpt>
      <trkpt lat="47.133229980245233" lon="-0.158029971644282">
        <ele>21</ele>
        <time>2022-07-12T09:23:21Z</time>
      </trkpt>
      <trkpt lat="47.133259987458587" lon="-0.158019997179508">
        <ele>21</ele>
        <time>2022-07-12T09:23:24Z</time>
      </trkpt>
      <trkpt lat="47.133289994671941" lon="-0.15798001550138">
        <ele>20</ele>
        <time>2022-07-12T09:23:26Z</time>
      </trkpt>
      <trkpt lat="47.133310027420521" lon="-0.157940033823252">
        <ele>20</ele>
        <time>2022-07-12T09:23:28Z</time>
      </trkpt>
      <trkpt lat="47.133329976350069" lon="-0.157899968326092">
        <ele>20</ele>
        <time>2022-07-12T09:23:34Z</time>
      </trkpt>
      <trkpt lat="47.133340034633875" lon="-0.157869961112738">
        <ele>18</ele>
        <time>2022-07-12T09:23:36Z</time>
      </trkpt>
      <trkpt lat="47.133350009098649" lon="-0.157810030505061">
        <ele>17</ele>
        <time>2022-07-12T09:23:38Z</time>
      </trkpt>
      <trkpt lat="47.133350009098649" lon="-0.157759990543127">
        <ele>15</ele>
        <time>2022-07-12T09:23:40Z</time>
      </trkpt>
      <trkpt lat="47.133350009098649" lon="-0.157699976116419">
        <ele>13</ele>
        <time>2022-07-12T09:23:42Z</time>
      </trkpt>
      <trkpt lat="47.133350009098649" lon="-0.157650019973516">
        <ele>11</ele>
        <time>2022-07-12T09:23:44Z</time>
      </trkpt>
      <trkpt lat="47.133350009098649" lon="-0.157599980011582">
        <ele>10</ele>
        <time>2022-07-12T09:23:46Z</time>
      </trkpt>
      <trkpt lat="47.133359983563423" lon="-0.157539965584874">
        <ele>10</ele>
        <time>2022-07-12T09:23:48Z</time>
      </trkpt>
      <trkpt lat="47.133380016312003" lon="-0.157480034977198">
        <ele>9</ele>
        <time>2022-07-12T09:23:50Z</time>
      </trkpt>
      <trkpt lat="47.133389990776777" lon="-0.157429995015264">
        <ele>9</ele>
        <time>2022-07-12T09:23:52Z</time>
      </trkpt>
      <trkpt lat="47.133389990776777" lon="-0.157369980588555">
        <ele>9</ele>
        <time>2022-07-12T09:23:54Z</time>
      </trkpt>
      <trkpt lat="47.133399965241551" lon="-0.157320024445653">
        <ele>8</ele>
        <time>2022-07-12T09:23:56Z</time>
      </trkpt>
      <trkpt lat="47.133410023525357" lon="-0.157269984483719">
        <ele>8</ele>
        <time>2022-07-12T09:23:58Z</time>
      </trkpt>
      <trkpt lat="47.133419997990131" lon="-0.157230002805591">
        <ele>8</ele>
        <time>2022-07-12T09:24:00Z</time>
      </trkpt>
      <trkpt lat="47.133440030738711" lon="-0.157190021127462">
        <ele>8</ele>
        <time>2022-07-12T09:24:02Z</time>
      </trkpt>
      <trkpt lat="47.133450005203485" lon="-0.157150039449334">
        <ele>9</ele>
        <time>2022-07-12T09:24:11Z</time>
      </trkpt>
      <trkpt lat="47.13345997966826" lon="-0.15712003223598">
        <ele>10</ele>
        <time>2022-07-12T09:24:15Z</time>
      </trkpt>
      <trkpt lat="47.13348001241684" lon="-0.15707996673882">
        <ele>12</ele>
        <time>2022-07-12T09:24:42Z</time>
      </trkpt>
      <trkpt lat="47.13348001241684" lon="-0.157090025022626">
        <ele>18</ele>
        <time>2022-07-12T09:25:18Z</time>
      </trkpt>
      <trkpt lat="47.133499961346388" lon="-0.157109973952174">
        <ele>21</ele>
        <time>2022-07-12T09:25:36Z</time>
      </trkpt>
      <trkpt lat="47.133519994094968" lon="-0.15712003223598">
        <ele>22</ele>
        <time>2022-07-12T09:25:40Z</time>
      </trkpt>
      <trkpt lat="47.133550001308322" lon="-0.157130006700754">
        <ele>22</ele>
        <time>2022-07-12T09:25:57Z</time>
      </trkpt>
      <trkpt lat="47.133559975773096" lon="-0.157109973952174">
        <ele>23</ele>
        <time>2022-07-12T09:26:01Z</time>
      </trkpt>
      <trkpt lat="47.133540026843548" lon="-0.15707996673882">
        <ele>23</ele>
        <time>2022-07-12T09:26:05Z</time>
      </trkpt>
      <trkpt lat="47.133519994094968" lon="-0.157049959525466">
        <ele>24</ele>
        <time>2022-07-12T09:26:09Z</time>
      </trkpt>
      <trkpt lat="47.133489986881614" lon="-0.157049959525466">
        <ele>23</ele>
        <time>2022-07-12T09:26:18Z</time>
      </trkpt>
      <trkpt lat="47.13348001241684" lon="-0.157009977847338">
        <ele>27</ele>
        <time>2022-07-12T09:26:31Z</time>
      </trkpt>
      <trkpt lat="47.13345997966826" lon="-0.156979970633984">
        <ele>28</ele>
        <time>2022-07-12T09:26:34Z</time>
      </trkpt>
      <trkpt lat="47.133450005203485" lon="-0.156939988955855">
        <ele>28</ele>
        <time>2022-07-12T09:26:38Z</time>
      </trkpt>
      <trkpt lat="47.13345997966826" lon="-0.156900007277727">
        <ele>28</ele>
        <time>2022-07-12T09:26:40Z</time>
      </trkpt>
      <trkpt lat="47.133470037952065" lon="-0.156849967315793">
        <ele>29</ele>
        <time>2022-07-12T09:26:43Z</time>
      </trkpt>
      <trkpt lat="47.133470037952065" lon="-0.156800011172891">
        <ele>30</ele>
        <time>2022-07-12T09:26:45Z</time>
      </trkpt>
      <trkpt lat="47.13348001241684" lon="-0.156760029494762">
        <ele>31</ele>
        <time>2022-07-12T09:26:47Z</time>
      </trkpt>
      <trkpt lat="47.133499961346388" lon="-0.156719963997602">
        <ele>32</ele>
        <time>2022-07-12T09:26:50Z</time>
      </trkpt>
      <trkpt lat="47.133510019630194" lon="-0.1566700078547">
        <ele>32</ele>
        <time>2022-07-12T09:26:53Z</time>
      </trkpt>
      <trkpt lat="47.133529968559742" lon="-0.156619967892766">
        <ele>33</ele>
        <time>2022-07-12T09:26:55Z</time>
      </trkpt>
      <trkpt lat="47.133540026843548" lon="-0.156579986214638">
        <ele>33</ele>
        <time>2022-07-12T09:26:57Z</time>
      </trkpt>
      <trkpt lat="47.133550001308322" lon="-0.15654000453651">
        <ele>33</ele>
        <time>2022-07-12T09:26:59Z</time>
      </trkpt>
      <trkpt lat="47.133570034056902" lon="-0.156489964574575">
        <ele>34</ele>
        <time>2022-07-12T09:27:01Z</time>
      </trkpt>
      <trkpt lat="47.133580008521676" lon="-0.156449982896447">
        <ele>35</ele>
        <time>2022-07-12T09:27:04Z</time>
      </trkpt>
      <trkpt lat="47.133570034056902" lon="-0.156419975683093">
        <ele>35</ele>
        <time>2022-07-12T09:27:06Z</time>
      </trkpt>
      <trkpt lat="47.133559975773096" lon="-0.156379994004965">
        <ele>35</ele>
        <time>2022-07-12T09:27:10Z</time>
      </trkpt>
      <trkpt lat="47.133570034056902" lon="-0.156340012326837">
        <ele>36</ele>
        <time>2022-07-12T09:27:12Z</time>
      </trkpt>
      <trkpt lat="47.133600041270256" lon="-0.156300030648708">
        <ele>35</ele>
        <time>2022-07-12T09:27:15Z</time>
      </trkpt>
      <trkpt lat="47.133619990199804" lon="-0.156270023435354">
        <ele>34</ele>
        <time>2022-07-12T09:27:17Z</time>
      </trkpt>
      <trkpt lat="47.133629964664578" lon="-0.156230041757226">
        <ele>33</ele>
        <time>2022-07-12T09:27:41Z</time>
      </trkpt>
      <trkpt lat="47.133640022948384" lon="-0.156189976260066">
        <ele>32</ele>
        <time>2022-07-12T09:27:43Z</time>
      </trkpt>
      <trkpt lat="47.133659971877933" lon="-0.156159969046712">
        <ele>31</ele>
        <time>2022-07-12T09:27:48Z</time>
      </trkpt>
      <trkpt lat="47.133659971877933" lon="-0.156129961833358">
        <ele>29</ele>
        <time>2022-07-12T09:28:13Z</time>
      </trkpt>
      <trkpt lat="47.133649997413158" lon="-0.15608998015523">
        <ele>29</ele>
        <time>2022-07-12T09:28:17Z</time>
      </trkpt>
      <trkpt lat="47.133640022948384" lon="-0.156040024012327">
        <ele>28</ele>
        <time>2022-07-12T09:28:48Z</time>
      </trkpt>
      <trkpt lat="47.133629964664578" lon="-0.155999958515167">
        <ele>29</ele>
        <time>2022-07-12T09:28:50Z</time>
      </trkpt>
      <trkpt lat="47.133619990199804" lon="-0.155950002372265">
        <ele>29</ele>
        <time>2022-07-12T09:29:22Z</time>
      </trkpt>
      <trkpt lat="47.13361001573503" lon="-0.155910020694137">
        <ele>30</ele>
        <time>2022-07-12T09:29:27Z</time>
      </trkpt>
      <trkpt lat="47.133619990199804" lon="-0.155870039016008">
        <ele>32</ele>
        <time>2022-07-12T09:29:30Z</time>
      </trkpt>
      <trkpt lat="47.133629964664578" lon="-0.155840031802654">
        <ele>33</ele>
        <time>2022-07-12T09:29:32Z</time>
      </trkpt>
      <trkpt lat="47.133649997413158" lon="-0.1558100245893">
        <ele>35</ele>
        <time>2022-07-12T09:29:38Z</time>
      </trkpt>
      <trkpt lat="47.133649997413158" lon="-0.15576995909214">
        <ele>36</ele>
        <time>2022-07-12T09:29:40Z</time>
      </trkpt>
      <trkpt lat="47.133649997413158" lon="-0.155729977414012">
        <ele>36</ele>
        <time>2022-07-12T09:29:42Z</time>
      </trkpt>
      <trkpt lat="47.133629964664578" lon="-0.155740035697818">
        <ele>37</ele>
        <time>2022-07-12T09:29:57Z</time>
      </trkpt>
      <trkpt lat="47.133619990199804" lon="-0.155780017375946">
        <ele>37</ele>
        <time>2022-07-12T09:30:00Z</time>
      </trkpt>
      <trkpt lat="47.133600041270256" lon="-0.1558100245893">
        <ele>38</ele>
        <time>2022-07-12T09:30:03Z</time>
      </trkpt>
      <trkpt lat="47.133580008521676" lon="-0.155859980732203">
        <ele>38</ele>
        <time>2022-07-12T09:30:06Z</time>
      </trkpt>
      <trkpt lat="47.133559975773096" lon="-0.155899962410331">
        <ele>37</ele>
        <time>2022-07-12T09:30:09Z</time>
      </trkpt>
      <trkpt lat="47.133529968559742" lon="-0.155910020694137">
        <ele>36</ele>
        <time>2022-07-12T09:30:12Z</time>
      </trkpt>
      <trkpt lat="47.133489986881614" lon="-0.155910020694137">
        <ele>35</ele>
        <time>2022-07-12T09:30:14Z</time>
      </trkpt>
      <trkpt lat="47.13345997966826" lon="-0.155929969623685">
        <ele>34</ele>
        <time>2022-07-12T09:30:17Z</time>
      </trkpt>
      <trkpt lat="47.133419997990131" lon="-0.155950002372265">
        <ele>33</ele>
        <time>2022-07-12T09:30:20Z</time>
      </trkpt>
      <trkpt lat="47.133389990776777" lon="-0.155970035120845">
        <ele>33</ele>
        <time>2022-07-12T09:30:23Z</time>
      </trkpt>
      <trkpt lat="47.133350009098649" lon="-0.155999958515167">
        <ele>33</ele>
        <time>2022-07-12T09:30:25Z</time>
      </trkpt>
      <trkpt lat="47.133329976350069" lon="-0.156029965728521">
        <ele>33</ele>
        <time>2022-07-12T09:30:27Z</time>
      </trkpt>
      <trkpt lat="47.133299969136715" lon="-0.156070031225681">
        <ele>33</ele>
        <time>2022-07-12T09:30:30Z</time>
      </trkpt>
      <trkpt lat="47.133280020207167" lon="-0.156100038439035">
        <ele>34</ele>
        <time>2022-07-12T09:30:32Z</time>
      </trkpt>
      <trkpt lat="47.133259987458587" lon="-0.156140020117164">
        <ele>34</ele>
        <time>2022-07-12T09:30:35Z</time>
      </trkpt>
      <trkpt lat="47.133250012993813" lon="-0.156180001795292">
        <ele>34</ele>
        <time>2022-07-12T09:30:37Z</time>
      </trkpt>
      <trkpt lat="47.133229980245233" lon="-0.15621998347342">
        <ele>33</ele>
        <time>2022-07-12T09:30:39Z</time>
      </trkpt>
      <trkpt lat="47.133220005780458" lon="-0.156259965151548">
        <ele>33</ele>
        <time>2022-07-12T09:30:41Z</time>
      </trkpt>
      <trkpt lat="47.133189998567104" lon="-0.156300030648708">
        <ele>33</ele>
        <time>2022-07-12T09:30:45Z</time>
      </trkpt>
      <trkpt lat="47.133169965818524" lon="-0.156340012326837">
        <ele>33</ele>
        <time>2022-07-12T09:30:47Z</time>
      </trkpt>
      <trkpt lat="47.133150016888976" lon="-0.156379994004965">
        <ele>34</ele>
        <time>2022-07-12T09:30:49Z</time>
      </trkpt>
      <trkpt lat="47.13313995860517" lon="-0.156419975683093">
        <ele>36</ele>
        <time>2022-07-12T09:30:51Z</time>
      </trkpt>
      <trkpt lat="47.133129984140396" lon="-0.156460041180253">
        <ele>36</ele>
        <time>2022-07-12T09:30:53Z</time>
      </trkpt>
      <trkpt lat="47.133120009675622" lon="-0.156500022858381">
        <ele>36</ele>
        <time>2022-07-12T09:30:55Z</time>
      </trkpt>
      <trkpt lat="47.133099976927042" lon="-0.15654000453651">
        <ele>36</ele>
        <time>2022-07-12T09:30:58Z</time>
      </trkpt>
      <trkpt lat="47.133069969713688" lon="-0.156570011749864">
        <ele>35</ele>
        <time>2022-07-12T09:31:00Z</time>
      </trkpt>
      <trkpt lat="47.133039962500334" lon="-0.156589960679412">
        <ele>34</ele>
        <time>2022-07-12T09:31:02Z</time>
      </trkpt>
      <trkpt lat="47.132999980822206" lon="-0.156609993427992">
        <ele>34</ele>
        <time>2022-07-12T09:31:04Z</time>
      </trkpt>
      <trkpt lat="47.132980031892657" lon="-0.156619967892766">
        <ele>34</ele>
        <time>2022-07-12T09:31:06Z</time>
      </trkpt>
      <trkpt lat="47.132950024679303" lon="-0.156630026176572">
        <ele>33</ele>
        <time>2022-07-12T09:31:08Z</time>
      </trkpt>
      <trkpt lat="47.132909959182143" lon="-0.156640000641346">
        <ele>33</ele>
        <time>2022-07-12T09:31:10Z</time>
      </trkpt>
      <trkpt lat="47.132880035787821" lon="-0.156640000641346">
        <ele>32</ele>
        <time>2022-07-12T09:31:12Z</time>
      </trkpt>
      <trkpt lat="47.132850028574467" lon="-0.156630026176572">
        <ele>32</ele>
        <time>2022-07-12T09:31:14Z</time>
      </trkpt>
      <trkpt lat="47.132829995825887" lon="-0.156609993427992">
        <ele>31</ele>
        <time>2022-07-12T09:31:16Z</time>
      </trkpt>
      <trkpt lat="47.132790014147758" lon="-0.156589960679412">
        <ele>31</ele>
        <time>2022-07-12T09:31:19Z</time>
      </trkpt>
      <trkpt lat="47.132769981399179" lon="-0.156579986214638">
        <ele>30</ele>
        <time>2022-07-12T09:31:21Z</time>
      </trkpt>
      <trkpt lat="47.132739974185824" lon="-0.156570011749864">
        <ele>30</ele>
        <time>2022-07-12T09:31:23Z</time>
      </trkpt>
      <trkpt lat="47.13270996697247" lon="-0.156549979001284">
        <ele>30</ele>
        <time>2022-07-12T09:31:25Z</time>
      </trkpt>
      <trkpt lat="47.132679959759116" lon="-0.156530030071735">
        <ele>30</ele>
        <time>2022-07-12T09:31:27Z</time>
      </trkpt>
      <trkpt lat="47.132660010829568" lon="-0.156500022858381">
        <ele>30</ele>
        <time>2022-07-12T09:31:30Z</time>
      </trkpt>
      <trkpt lat="47.132639978080988" lon="-0.156470015645027">
        <ele>31</ele>
        <time>2022-07-12T09:31:33Z</time>
      </trkpt>
      <trkpt lat="47.132609970867634" lon="-0.156440008431673">
        <ele>32</ele>
        <time>2022-07-12T09:31:36Z</time>
      </trkpt>
      <trkpt lat="47.132590021938086" lon="-0.156410001218319">
        <ele>33</ele>
        <time>2022-07-12T09:31:40Z</time>
      </trkpt>
      <trkpt lat="47.132550040259957" lon="-0.156379994004965">
        <ele>34</ele>
        <time>2022-07-12T09:31:43Z</time>
      </trkpt>
      <trkpt lat="47.132520033046603" lon="-0.156359961256385">
        <ele>35</ele>
        <time>2022-07-12T09:31:45Z</time>
      </trkpt>
      <trkpt lat="47.132490025833249" lon="-0.156330037862062">
        <ele>37</ele>
        <time>2022-07-12T09:31:49Z</time>
      </trkpt>
      <trkpt lat="47.132460018619895" lon="-0.156310005113482">
        <ele>38</ele>
        <time>2022-07-12T09:31:52Z</time>
      </trkpt>
      <trkpt lat="47.132430011406541" lon="-0.156289972364903">
        <ele>38</ele>
        <time>2022-07-12T09:31:54Z</time>
      </trkpt>
      <trkpt lat="47.132400004193187" lon="-0.156270023435354">
        <ele>39</ele>
        <time>2022-07-12T09:31:57Z</time>
      </trkpt>
      <trkpt lat="47.132379971444607" lon="-0.156240016222">
        <ele>40</ele>
        <time>2022-07-12T09:32:00Z</time>
      </trkpt>
      <trkpt lat="47.132339989766479" lon="-0.15621998347342">
        <ele>41</ele>
        <time>2022-07-12T09:32:03Z</time>
      </trkpt>
      <trkpt lat="47.132309982553124" lon="-0.156210009008646">
        <ele>44</ele>
        <time>2022-07-12T09:32:07Z</time>
      </trkpt>
      <trkpt lat="47.13227997533977" lon="-0.15621998347342">
        <ele>45</ele>
        <time>2022-07-12T09:32:09Z</time>
      </trkpt>
      <trkpt lat="47.132249968126416" lon="-0.15621998347342">
        <ele>46</ele>
        <time>2022-07-12T09:32:12Z</time>
      </trkpt>
      <trkpt lat="47.132219960913062" lon="-0.15621998347342">
        <ele>49</ele>
        <time>2022-07-12T09:32:30Z</time>
      </trkpt>
      <trkpt lat="47.132179979234934" lon="-0.156230041757226">
        <ele>50</ele>
        <time>2022-07-12T09:32:33Z</time>
      </trkpt>
      <trkpt lat="47.13214997202158" lon="-0.15621998347342">
        <ele>52</ele>
        <time>2022-07-12T09:32:36Z</time>
      </trkpt>
      <trkpt lat="47.132119964808226" lon="-0.156210009008646">
        <ele>52</ele>
        <time>2022-07-12T09:32:39Z</time>
      </trkpt>
      <trkpt lat="47.132090041413903" lon="-0.156210009008646">
        <ele>54</ele>
        <time>2022-07-12T09:32:41Z</time>
      </trkpt>
      <trkpt lat="47.132060034200549" lon="-0.156200034543872">
        <ele>55</ele>
        <time>2022-07-12T09:32:45Z</time>
      </trkpt>
      <trkpt lat="47.132030026987195" lon="-0.156189976260066">
        <ele>56</ele>
        <time>2022-07-12T09:32:48Z</time>
      </trkpt>
      <trkpt lat="47.132000019773841" lon="-0.156170027330518">
        <ele>58</ele>
        <time>2022-07-12T09:32:52Z</time>
      </trkpt>
      <trkpt lat="47.131989961490035" lon="-0.156140020117164">
        <ele>60</ele>
        <time>2022-07-12T09:32:58Z</time>
      </trkpt>
      <trkpt lat="47.131989961490035" lon="-0.156100038439035">
        <ele>61</ele>
        <time>2022-07-12T09:33:01Z</time>
      </trkpt>
      <trkpt lat="47.132000019773841" lon="-0.156070031225681">
        <ele>62</ele>
        <time>2022-07-12T09:33:04Z</time>
      </trkpt>
      <trkpt lat="47.132019968703389" lon="-0.156049998477101">
        <ele>64</ele>
        <time>2022-07-12T09:33:09Z</time>
      </trkpt>
      <trkpt lat="47.132049975916743" lon="-0.156019991263747">
        <ele>64</ele>
        <time>2022-07-12T09:33:20Z</time>
      </trkpt>
      <trkpt lat="47.132030026987195" lon="-0.156010016798973">
        <ele>62</ele>
        <time>2022-07-12T09:33:35Z</time>
      </trkpt>
      <trkpt lat="47.132040001451969" lon="-0.155980009585619">
        <ele>62</ele>
        <time>2022-07-12T09:33:53Z</time>
      </trkpt>
      <trkpt lat="47.132060034200549" lon="-0.155970035120845">
        <ele>61</ele>
        <time>2022-07-12T09:33:56Z</time>
      </trkpt>
      <trkpt lat="47.132090041413903" lon="-0.155950002372265">
        <ele>61</ele>
        <time>2022-07-12T09:34:00Z</time>
      </trkpt>
      <trkpt lat="47.132119964808226" lon="-0.155929969623685">
        <ele>62</ele>
        <time>2022-07-12T09:34:05Z</time>
      </trkpt>
      <trkpt lat="47.132139997556806" lon="-0.155919995158911">
        <ele>62</ele>
        <time>2022-07-12T09:34:14Z</time>
      </trkpt>
      <trkpt lat="47.13217000477016" lon="-0.155889987945557">
        <ele>61</ele>
        <time>2022-07-12T09:34:18Z</time>
      </trkpt>
      <trkpt lat="47.132200011983514" lon="-0.155859980732203">
        <ele>60</ele>
        <time>2022-07-12T09:34:21Z</time>
      </trkpt>
      <trkpt lat="47.132219960913062" lon="-0.155819999054074">
        <ele>59</ele>
        <time>2022-07-12T09:34:23Z</time>
      </trkpt>
      <trkpt lat="47.132239993661642" lon="-0.15578999184072">
        <ele>58</ele>
        <time>2022-07-12T09:34:25Z</time>
      </trkpt>
      <trkpt lat="47.132249968126416" lon="-0.155750010162592">
        <ele>58</ele>
        <time>2022-07-12T09:34:28Z</time>
      </trkpt>
      <trkpt lat="47.132270000874996" lon="-0.155710028484464">
        <ele>58</ele>
        <time>2022-07-12T09:34:44Z</time>
      </trkpt>
      <trkpt lat="47.13230000808835" lon="-0.155669962987304">
        <ele>58</ele>
        <time>2022-07-12T09:34:47Z</time>
      </trkpt>
      <trkpt lat="47.13232004083693" lon="-0.155640039592981">
        <ele>58</ele>
        <time>2022-07-12T09:34:49Z</time>
      </trkpt>
      <trkpt lat="47.132349964231253" lon="-0.155610032379627">
        <ele>58</ele>
        <time>2022-07-12T09:34:51Z</time>
      </trkpt>
      <trkpt lat="47.132369996979833" lon="-0.155580025166273">
        <ele>58</ele>
        <time>2022-07-12T09:34:54Z</time>
      </trkpt>
      <trkpt lat="47.132390029728413" lon="-0.155539959669113">
        <ele>59</ele>
        <time>2022-07-12T09:34:57Z</time>
      </trkpt>
      <trkpt lat="47.132409978657961" lon="-0.155499977990985">
        <ele>59</ele>
        <time>2022-07-12T09:35:00Z</time>
      </trkpt>
      <trkpt lat="47.132420036941767" lon="-0.155459996312857">
        <ele>60</ele>
        <time>2022-07-12T09:35:03Z</time>
      </trkpt>
      <trkpt lat="47.132430011406541" lon="-0.155410040169954">
        <ele>61</ele>
        <time>2022-07-12T09:35:06Z</time>
      </trkpt>
      <trkpt lat="47.132439985871315" lon="-0.1553800329566">
        <ele>61</ele>
        <time>2022-07-12T09:35:08Z</time>
      </trkpt>
      <trkpt lat="47.132460018619895" lon="-0.155329992994666">
        <ele>62</ele>
        <time>2022-07-12T09:35:10Z</time>
      </trkpt>
      <trkpt lat="47.132469993084669" lon="-0.155290011316538">
        <ele>63</ele>
        <time>2022-07-12T09:35:12Z</time>
      </trkpt>
      <trkpt lat="47.132479967549443" lon="-0.15525002963841">
        <ele>63</ele>
        <time>2022-07-12T09:35:14Z</time>
      </trkpt>
      <trkpt lat="47.132490025833249" lon="-0.15520996414125">
        <ele>63</ele>
        <time>2022-07-12T09:35:18Z</time>
      </trkpt>
      <trkpt lat="47.132500000298023" lon="-0.155160007998347">
        <ele>64</ele>
        <time>2022-07-12T09:35:20Z</time>
      </trkpt>
      <trkpt lat="47.132500000298023" lon="-0.155099993571639">
        <ele>64</ele>
        <time>2022-07-12T09:35:23Z</time>
      </trkpt>
      <trkpt lat="47.132490025833249" lon="-0.155050037428737">
        <ele>64</ele>
        <time>2022-07-12T09:35:25Z</time>
      </trkpt>
      <trkpt lat="47.132490025833249" lon="-0.154999997466803">
        <ele>65</ele>
        <time>2022-07-12T09:35:27Z</time>
      </trkpt>
      <trkpt lat="47.132500000298023" lon="-0.1549500413239">
        <ele>64</ele>
        <time>2022-07-12T09:35:30Z</time>
      </trkpt>
      <trkpt lat="47.132500000298023" lon="-0.15490997582674">
        <ele>64</ele>
        <time>2022-07-12T09:35:32Z</time>
      </trkpt>
      <trkpt lat="47.132500000298023" lon="-0.154869994148612">
        <ele>64</ele>
        <time>2022-07-12T09:35:34Z</time>
      </trkpt>
      <trkpt lat="47.132500000298023" lon="-0.15482003800571">
        <ele>64</ele>
        <time>2022-07-12T09:35:37Z</time>
      </trkpt>
      <trkpt lat="47.132469993084669" lon="-0.154790030792356">
        <ele>63</ele>
        <time>2022-07-12T09:35:39Z</time>
      </trkpt>
      <trkpt lat="47.132449960336089" lon="-0.154749965295196">
        <ele>63</ele>
        <time>2022-07-12T09:35:41Z</time>
      </trkpt>
      <trkpt lat="47.132420036941767" lon="-0.154730016365647">
        <ele>63</ele>
        <time>2022-07-12T09:35:43Z</time>
      </trkpt>
      <trkpt lat="47.132379971444607" lon="-0.154700009152293">
        <ele>62</ele>
        <time>2022-07-12T09:35:45Z</time>
      </trkpt>
      <trkpt lat="47.132369996979833" lon="-0.154660027474165">
        <ele>62</ele>
        <time>2022-07-12T09:35:49Z</time>
      </trkpt>
      <trkpt lat="47.132349964231253" lon="-0.154600013047457">
        <ele>62</ele>
        <time>2022-07-12T09:35:52Z</time>
      </trkpt>
      <trkpt lat="47.132349964231253" lon="-0.154549973085523">
        <ele>61</ele>
        <time>2022-07-12T09:35:55Z</time>
      </trkpt>
      <trkpt lat="47.132349964231253" lon="-0.154509991407394">
        <ele>61</ele>
        <time>2022-07-12T09:35:59Z</time>
      </trkpt>
      <trkpt lat="47.132339989766479" lon="-0.154470009729266">
        <ele>60</ele>
        <time>2022-07-12T09:36:09Z</time>
      </trkpt>
      <trkpt lat="47.132349964231253" lon="-0.154440002515912">
        <ele>63</ele>
        <time>2022-07-12T09:36:20Z</time>
      </trkpt>
      <trkpt lat="47.132349964231253" lon="-0.154460035264492">
        <ele>64</ele>
        <time>2022-07-12T09:37:21Z</time>
      </trkpt>
      <trkpt lat="47.132339989766479" lon="-0.154489958658814">
        <ele>62</ele>
        <time>2022-07-12T09:37:30Z</time>
      </trkpt>
      <trkpt lat="47.13232004083693" lon="-0.15447998419404">
        <ele>60</ele>
        <time>2022-07-12T09:37:47Z</time>
      </trkpt>
      <trkpt lat="47.13230000808835" lon="-0.154460035264492">
        <ele>58</ele>
        <time>2022-07-12T09:38:33Z</time>
      </trkpt>
      <trkpt lat="47.13230000808835" lon="-0.154430028051138">
        <ele>58</ele>
        <time>2022-07-12T09:38:36Z</time>
      </trkpt>
      <trkpt lat="47.132309982553124" lon="-0.154389962553978">
        <ele>58</ele>
        <time>2022-07-12T09:38:38Z</time>
      </trkpt>
      <trkpt lat="47.13232004083693" lon="-0.15434998087585">
        <ele>58</ele>
        <time>2022-07-12T09:38:40Z</time>
      </trkpt>
      <trkpt lat="47.132330015301704" lon="-0.154300024732947">
        <ele>58</ele>
        <time>2022-07-12T09:38:43Z</time>
      </trkpt>
      <trkpt lat="47.132349964231253" lon="-0.154259959235787">
        <ele>57</ele>
        <time>2022-07-12T09:38:45Z</time>
      </trkpt>
      <trkpt lat="47.132360022515059" lon="-0.154210003092885">
        <ele>57</ele>
        <time>2022-07-12T09:38:48Z</time>
      </trkpt>
      <trkpt lat="47.132379971444607" lon="-0.154170021414757">
        <ele>57</ele>
        <time>2022-07-12T09:38:51Z</time>
      </trkpt>
      <trkpt lat="47.132390029728413" lon="-0.154119981452823">
        <ele>58</ele>
        <time>2022-07-12T09:38:55Z</time>
      </trkpt>
      <trkpt lat="47.132409978657961" lon="-0.154079999774694">
        <ele>58</ele>
        <time>2022-07-12T09:38:59Z</time>
      </trkpt>
      <trkpt lat="47.132430011406541" lon="-0.15404999256134">
        <ele>58</ele>
        <time>2022-07-12T09:39:01Z</time>
      </trkpt>
      <trkpt lat="47.132449960336089" lon="-0.154010010883212">
        <ele>58</ele>
        <time>2022-07-12T09:39:05Z</time>
      </trkpt>
      <trkpt lat="47.132479967549443" lon="-0.153980003669858">
        <ele>57</ele>
        <time>2022-07-12T09:39:07Z</time>
      </trkpt>
      <trkpt lat="47.132500000298023" lon="-0.15394002199173">
        <ele>57</ele>
        <time>2022-07-12T09:39:10Z</time>
      </trkpt>
      <trkpt lat="47.132520033046603" lon="-0.153900040313601">
        <ele>56</ele>
        <time>2022-07-12T09:39:14Z</time>
      </trkpt>
      <trkpt lat="47.132530007511377" lon="-0.153850000351667">
        <ele>56</ele>
        <time>2022-07-12T09:39:17Z</time>
      </trkpt>
      <trkpt lat="47.132530007511377" lon="-0.153810018673539">
        <ele>56</ele>
        <time>2022-07-12T09:39:21Z</time>
      </trkpt>
      <trkpt lat="47.132520033046603" lon="-0.153770036995411">
        <ele>55</ele>
        <time>2022-07-12T09:39:28Z</time>
      </trkpt>
      <trkpt lat="47.132509974762797" lon="-0.153729971498251">
        <ele>55</ele>
        <time>2022-07-12T09:39:31Z</time>
      </trkpt>
      <trkpt lat="47.132490025833249" lon="-0.153689989820123">
        <ele>54</ele>
        <time>2022-07-12T09:39:37Z</time>
      </trkpt>
      <trkpt lat="47.132500000298023" lon="-0.153680015355349">
        <ele>54</ele>
        <time>2022-07-12T09:39:48Z</time>
      </trkpt>
      <trkpt lat="47.132500000298023" lon="-0.153650008141994">
        <ele>52</ele>
        <time>2022-07-12T09:40:29Z</time>
      </trkpt>
      <trkpt lat="47.132469993084669" lon="-0.15364003367722">
        <ele>51</ele>
        <time>2022-07-12T09:40:32Z</time>
      </trkpt>
      <trkpt lat="47.132439985871315" lon="-0.153610026463866">
        <ele>51</ele>
        <time>2022-07-12T09:40:35Z</time>
      </trkpt>
      <trkpt lat="47.132420036941767" lon="-0.153589993715286">
        <ele>51</ele>
        <time>2022-07-12T09:40:37Z</time>
      </trkpt>
      <trkpt lat="47.132390029728413" lon="-0.153559986501932">
        <ele>51</ele>
        <time>2022-07-12T09:40:39Z</time>
      </trkpt>
      <trkpt lat="47.132369996979833" lon="-0.153540037572384">
        <ele>51</ele>
        <time>2022-07-12T09:40:42Z</time>
      </trkpt>
      <trkpt lat="47.132339989766479" lon="-0.15351003035903">
        <ele>52</ele>
        <time>2022-07-12T09:40:45Z</time>
      </trkpt>
      <trkpt lat="47.132309982553124" lon="-0.15348999761045">
        <ele>52</ele>
        <time>2022-07-12T09:40:47Z</time>
      </trkpt>
      <trkpt lat="47.13227997533977" lon="-0.15346996486187">
        <ele>52</ele>
        <time>2022-07-12T09:40:49Z</time>
      </trkpt>
      <trkpt lat="47.132249968126416" lon="-0.153450015932322">
        <ele>52</ele>
        <time>2022-07-12T09:40:51Z</time>
      </trkpt>
      <trkpt lat="47.132209986448288" lon="-0.153420008718967">
        <ele>53</ele>
        <time>2022-07-12T09:40:54Z</time>
      </trkpt>
      <trkpt lat="47.132179979234934" lon="-0.153399975970387">
        <ele>53</ele>
        <time>2022-07-12T09:40:57Z</time>
      </trkpt>
      <trkpt lat="47.13214997202158" lon="-0.153380027040839">
        <ele>53</ele>
        <time>2022-07-12T09:40:59Z</time>
      </trkpt>
      <trkpt lat="47.132119964808226" lon="-0.153350019827485">
        <ele>54</ele>
        <time>2022-07-12T09:41:02Z</time>
      </trkpt>
      <trkpt lat="47.132100015878677" lon="-0.153320012614131">
        <ele>54</ele>
        <time>2022-07-12T09:41:04Z</time>
      </trkpt>
      <trkpt lat="47.132070008665323" lon="-0.153299979865551">
        <ele>54</ele>
        <time>2022-07-12T09:41:06Z</time>
      </trkpt>
      <trkpt lat="47.132049975916743" lon="-0.153259998187423">
        <ele>54</ele>
        <time>2022-07-12T09:41:08Z</time>
      </trkpt>
      <trkpt lat="47.132030026987195" lon="-0.153239965438843">
        <ele>54</ele>
        <time>2022-07-12T09:41:11Z</time>
      </trkpt>
      <trkpt lat="47.132000019773841" lon="-0.153209958225489">
        <ele>55</ele>
        <time>2022-07-12T09:41:14Z</time>
      </trkpt>
      <trkpt lat="47.131979987025261" lon="-0.153180034831166">
        <ele>56</ele>
        <time>2022-07-12T09:41:24Z</time>
      </trkpt>
      <trkpt lat="47.131989961490035" lon="-0.15319000929594">
        <ele>56</ele>
        <time>2022-07-12T09:41:50Z</time>
      </trkpt>
      <trkpt lat="47.132009994238615" lon="-0.153199983760715">
        <ele>56</ele>
        <time>2022-07-12T09:41:52Z</time>
      </trkpt>
      <trkpt lat="47.131989961490035" lon="-0.15319000929594">
        <ele>57</ele>
        <time>2022-07-12T09:42:01Z</time>
      </trkpt>
      <trkpt lat="47.131970012560487" lon="-0.153160002082586">
        <ele>58</ele>
        <time>2022-07-12T09:42:04Z</time>
      </trkpt>
      <trkpt lat="47.131949979811907" lon="-0.153139969334006">
        <ele>58</ele>
        <time>2022-07-12T09:42:07Z</time>
      </trkpt>
      <trkpt lat="47.131919972598553" lon="-0.153120020404458">
        <ele>58</ele>
        <time>2022-07-12T09:42:10Z</time>
      </trkpt>
      <trkpt lat="47.131909998133779" lon="-0.153090013191104">
        <ele>60</ele>
        <time>2022-07-12T09:42:34Z</time>
      </trkpt>
      <trkpt lat="47.131889965385199" lon="-0.153050031512976">
        <ele>61</ele>
        <time>2022-07-12T09:42:37Z</time>
      </trkpt>
      <trkpt lat="47.13187001645565" lon="-0.153009966015816">
        <ele>62</ele>
        <time>2022-07-12T09:42:40Z</time>
      </trkpt>
      <trkpt lat="47.131859958171844" lon="-0.152969984337687">
        <ele>63</ele>
        <time>2022-07-12T09:42:53Z</time>
      </trkpt>
      <trkpt lat="47.131840009242296" lon="-0.152930002659559">
        <ele>63</ele>
        <time>2022-07-12T09:42:56Z</time>
      </trkpt>
      <trkpt lat="47.131819976493716" lon="-0.152890020981431">
        <ele>64</ele>
        <time>2022-07-12T09:43:00Z</time>
      </trkpt>
      <trkpt lat="47.131800027564168" lon="-0.152850039303303">
        <ele>64</ele>
        <time>2022-07-12T09:43:03Z</time>
      </trkpt>
      <trkpt lat="47.131789969280362" lon="-0.152799999341369">
        <ele>64</ele>
        <time>2022-07-12T09:43:06Z</time>
      </trkpt>
      <trkpt lat="47.131779994815588" lon="-0.15276001766324">
        <ele>64</ele>
        <time>2022-07-12T09:43:09Z</time>
      </trkpt>
      <trkpt lat="47.131770020350814" lon="-0.152720035985112">
        <ele>64</ele>
        <time>2022-07-12T09:43:12Z</time>
      </trkpt>
      <trkpt lat="47.131759962067008" lon="-0.152679970487952">
        <ele>63</ele>
        <time>2022-07-12T09:43:15Z</time>
      </trkpt>
      <trkpt lat="47.131759962067008" lon="-0.15263001434505">
        <ele>63</ele>
        <time>2022-07-12T09:43:18Z</time>
      </trkpt>
      <trkpt lat="47.131749987602234" lon="-0.152579974383116">
        <ele>63</ele>
        <time>2022-07-12T09:43:22Z</time>
      </trkpt>
      <trkpt lat="47.13174001313746" lon="-0.152530018240213">
        <ele>63</ele>
        <time>2022-07-12T09:43:25Z</time>
      </trkpt>
      <trkpt lat="47.131730038672686" lon="-0.152479978278279">
        <ele>64</ele>
        <time>2022-07-12T09:43:28Z</time>
      </trkpt>
      <trkpt lat="47.13171998038888" lon="-0.152430022135377">
        <ele>63</ele>
        <time>2022-07-12T09:43:34Z</time>
      </trkpt>
      <trkpt lat="47.131710005924106" lon="-0.152379982173443">
        <ele>64</ele>
        <time>2022-07-12T09:43:39Z</time>
      </trkpt>
      <trkpt lat="47.131710005924106" lon="-0.15233002603054">
        <ele>64</ele>
        <time>2022-07-12T09:43:41Z</time>
      </trkpt>
      <trkpt lat="47.131710005924106" lon="-0.152289960533381">
        <ele>65</ele>
        <time>2022-07-12T09:43:43Z</time>
      </trkpt>
      <trkpt lat="47.131700031459332" lon="-0.152240004390478">
        <ele>66</ele>
        <time>2022-07-12T09:43:46Z</time>
      </trkpt>
      <trkpt lat="47.131700031459332" lon="-0.152189964428544">
        <ele>67</ele>
        <time>2022-07-12T09:43:48Z</time>
      </trkpt>
      <trkpt lat="47.131689973175526" lon="-0.152149982750416">
        <ele>68</ele>
        <time>2022-07-12T09:43:52Z</time>
      </trkpt>
      <trkpt lat="47.131670024245977" lon="-0.152110001072288">
        <ele>67</ele>
        <time>2022-07-12T09:44:00Z</time>
      </trkpt>
      <trkpt lat="47.131659965962172" lon="-0.152070019394159">
        <ele>66</ele>
        <time>2022-07-12T09:44:02Z</time>
      </trkpt>
      <trkpt lat="47.131640017032623" lon="-0.152030037716031">
        <ele>64</ele>
        <time>2022-07-12T09:44:05Z</time>
      </trkpt>
      <trkpt lat="47.131625851616263" lon="-0.152062643319368">
        <ele>63</ele>
        <time>2022-07-12T09:44:08Z</time>
      </trkpt>
      <trkpt lat="47.131580840796232" lon="-0.152088291943073">
        <ele>62</ele>
        <time>2022-07-12T09:44:30Z</time>
      </trkpt>
      <trkpt lat="47.131476402282715" lon="-0.152134224772453">
        <ele>61</ele>
        <time>2022-07-12T09:44:33Z</time>
      </trkpt>
      <trkpt lat="47.131438599899411" lon="-0.152154760435224">
        <ele>61</ele>
        <time>2022-07-12T09:44:36Z</time>
      </trkpt>
      <trkpt lat="47.13142242282629" lon="-0.152159789577127">
        <ele>61</ele>
        <time>2022-07-12T09:44:39Z</time>
      </trkpt>
      <trkpt lat="47.131395433098078" lon="-0.152170015498996">
        <ele>61</ele>
        <time>2022-07-12T09:44:41Z</time>
      </trkpt>
      <trkpt lat="47.131357546895742" lon="-0.15220345929265">
        <ele>61</ele>
        <time>2022-07-12T09:44:45Z</time>
      </trkpt>
      <trkpt lat="47.131307171657681" lon="-0.15223422087729">
        <ele>60</ele>
        <time>2022-07-12T09:44:48Z</time>
      </trkpt>
      <trkpt lat="47.131271129474044" lon="-0.15226255171001">
        <ele>59</ele>
        <time>2022-07-12T09:44:51Z</time>
      </trkpt>
      <trkpt lat="47.131229639053345" lon="-0.152293397113681">
        <ele>59</ele>
        <time>2022-07-12T09:44:54Z</time>
      </trkpt>
      <trkpt lat="47.131184544414282" lon="-0.152339749038219">
        <ele>59</ele>
        <time>2022-07-12T09:44:56Z</time>
      </trkpt>
      <trkpt lat="47.131119081750512" lon="-0.15236564911902">
        <ele>58</ele>
        <time>2022-07-12T09:44:58Z</time>
      </trkpt>
      <trkpt lat="47.131083039566875" lon="-0.152404373511672">
        <ele>58</ele>
        <time>2022-07-12T09:45:01Z</time>
      </trkpt>
      <trkpt lat="47.131041549146175" lon="-0.152435218915343">
        <ele>58</ele>
        <time>2022-07-12T09:45:09Z</time>
      </trkpt>
      <trkpt lat="47.130991173908114" lon="-0.152458185330033">
        <ele>58</ele>
        <time>2022-07-12T09:45:12Z</time>
      </trkpt>
      <trkpt lat="47.130947839468718" lon="-0.152504621073604">
        <ele>58</ele>
        <time>2022-07-12T09:45:14Z</time>
      </trkpt>
      <trkpt lat="47.130883047357202" lon="-0.152537897229195">
        <ele>58</ele>
        <time>2022-07-12T09:45:16Z</time>
      </trkpt>
      <trkpt lat="47.130828984081745" lon="-0.15258165076375">
        <ele>58</ele>
        <time>2022-07-12T09:45:19Z</time>
      </trkpt>
      <trkpt lat="47.130755139514804" lon="-0.152640743181109">
        <ele>59</ele>
        <time>2022-07-12T09:45:21Z</time>
      </trkpt>
      <trkpt lat="47.13069923222065" lon="-0.152681898325682">
        <ele>59</ele>
        <time>2022-07-12T09:45:26Z</time>
      </trkpt>
      <trkpt lat="47.13064156472683" lon="-0.152733447030187">
        <ele>59</ele>
        <time>2022-07-12T09:45:30Z</time>
      </trkpt>
      <trkpt lat="47.130538802593946" lon="-0.152826150879264">
        <ele>59</ele>
        <time>2022-07-12T09:45:34Z</time>
      </trkpt>
      <trkpt lat="47.130522038787603" lon="-0.152836628258228">
        <ele>48</ele>
        <time>2022-07-13T13:09:35Z</time>
      </trkpt>
      <trkpt lat="47.130365213379264" lon="-0.152975684031844">
        <ele>58</ele>
      </trkpt>
      <trkpt lat="47.130386671051383" lon="-0.153004433959723">
        <ele>58</ele>
      </trkpt>
      <trkpt lat="47.130539054051042" lon="-0.153096551075578">
        <ele>58</ele>
      </trkpt>
      <trkpt lat="47.130644666031003" lon="-0.153196128085256">
        <ele>58</ele>
      </trkpt>
      <trkpt lat="47.130814818665385" lon="-0.153342979028821">
        <ele>48</ele>
        <time>2022-07-13T13:09:16Z</time>
      </trkpt>
      <trkpt lat="47.130820015445352" lon="-0.153390001505613">
        <ele>47</ele>
        <time>2022-07-13T13:09:11Z</time>
      </trkpt>
      <trkpt lat="47.130790008231997" lon="-0.153380027040839">
        <ele>46</ele>
        <time>2022-07-13T13:09:09Z</time>
      </trkpt>
      <trkpt lat="47.130760001018643" lon="-0.153380027040839">
        <ele>46</ele>
        <time>2022-07-13T13:09:07Z</time>
      </trkpt>
      <trkpt lat="47.130739968270063" lon="-0.153399975970387">
        <ele>47</ele>
        <time>2022-07-13T13:09:04Z</time>
      </trkpt>
      <trkpt lat="47.130709961056709" lon="-0.153440041467547">
        <ele>47</ele>
        <time>2022-07-13T13:09:01Z</time>
      </trkpt>
      <trkpt lat="47.130690012127161" lon="-0.15346996486187">
        <ele>46</ele>
        <time>2022-07-13T13:08:58Z</time>
      </trkpt>
      <trkpt lat="47.130669979378581" lon="-0.153499972075224">
        <ele>45</ele>
        <time>2022-07-13T13:08:55Z</time>
      </trkpt>
      <trkpt lat="47.130639972165227" lon="-0.153529979288578">
        <ele>44</ele>
        <time>2022-07-13T13:08:53Z</time>
      </trkpt>
      <trkpt lat="47.130620023235679" lon="-0.153569960966706">
        <ele>43</ele>
        <time>2022-07-13T13:08:50Z</time>
      </trkpt>
      <trkpt lat="47.130590016022325" lon="-0.15359996818006">
        <ele>45</ele>
        <time>2022-07-13T13:08:46Z</time>
      </trkpt>
      <trkpt lat="47.13058004155755" lon="-0.15364003367722">
        <ele>45</ele>
        <time>2022-07-13T13:08:44Z</time>
      </trkpt>
      <trkpt lat="47.13056000880897" lon="-0.153680015355349">
        <ele>46</ele>
        <time>2022-07-13T13:08:41Z</time>
      </trkpt>
      <trkpt lat="47.130530001595616" lon="-0.153710022568703">
        <ele>46</ele>
        <time>2022-07-13T13:08:39Z</time>
      </trkpt>
      <trkpt lat="47.130520027130842" lon="-0.153740029782057">
        <ele>46</ele>
        <time>2022-07-13T13:08:37Z</time>
      </trkpt>
      <trkpt lat="47.130499994382262" lon="-0.153780011460185">
        <ele>47</ele>
        <time>2022-07-13T13:08:34Z</time>
      </trkpt>
      <trkpt lat="47.130490019917488" lon="-0.153799960389733">
        <ele>47</ele>
        <time>2022-07-13T13:08:31Z</time>
      </trkpt>
      <trkpt lat="47.130509968847036" lon="-0.153799960389733">
        <ele>46</ele>
        <time>2022-07-13T13:08:23Z</time>
      </trkpt>
      <trkpt lat="47.130520027130842" lon="-0.153780011460185">
        <ele>45</ele>
        <time>2022-07-13T13:08:03Z</time>
      </trkpt>
      <trkpt lat="47.130530001595616" lon="-0.153789985924959">
        <ele>46</ele>
        <time>2022-07-13T13:07:58Z</time>
      </trkpt>
      <trkpt lat="47.130530001595616" lon="-0.153780011460185">
        <ele>47</ele>
        <time>2022-07-13T13:07:31Z</time>
      </trkpt>
      <trkpt lat="47.130499994382262" lon="-0.153810018673539">
        <ele>48</ele>
        <time>2022-07-13T13:07:28Z</time>
      </trkpt>
      <trkpt lat="47.130469987168908" lon="-0.153829967603087">
        <ele>48</ele>
        <time>2022-07-13T13:07:26Z</time>
      </trkpt>
      <trkpt lat="47.130439979955554" lon="-0.153859974816442">
        <ele>48</ele>
        <time>2022-07-13T13:07:23Z</time>
      </trkpt>
      <trkpt lat="47.130420031026006" lon="-0.153889982029796">
        <ele>48</ele>
        <time>2022-07-13T13:07:20Z</time>
      </trkpt>
      <trkpt lat="47.130399998277426" lon="-0.15391998924315">
        <ele>48</ele>
        <time>2022-07-13T13:07:17Z</time>
      </trkpt>
      <trkpt lat="47.130369991064072" lon="-0.153949996456504">
        <ele>48</ele>
        <time>2022-07-13T13:07:15Z</time>
      </trkpt>
      <trkpt lat="47.130349958315492" lon="-0.153989978134632">
        <ele>48</ele>
        <time>2022-07-13T13:07:12Z</time>
      </trkpt>
      <trkpt lat="47.130330009385943" lon="-0.15402995981276">
        <ele>48</ele>
        <time>2022-07-13T13:07:09Z</time>
      </trkpt>
      <trkpt lat="47.130320034921169" lon="-0.15407002530992">
        <ele>48</ele>
        <time>2022-07-13T13:06:59Z</time>
      </trkpt>
      <trkpt lat="47.130309976637363" lon="-0.154100032523274">
        <ele>47</ele>
        <time>2022-07-13T13:06:57Z</time>
      </trkpt>
      <trkpt lat="47.130290027707815" lon="-0.154149988666177">
        <ele>47</ele>
        <time>2022-07-13T13:06:54Z</time>
      </trkpt>
      <trkpt lat="47.130290027707815" lon="-0.154189970344305">
        <ele>48</ele>
        <time>2022-07-13T13:06:51Z</time>
      </trkpt>
      <trkpt lat="47.130300002172589" lon="-0.154240010306239">
        <ele>50</ele>
        <time>2022-07-13T13:06:46Z</time>
      </trkpt>
      <trkpt lat="47.130320034921169" lon="-0.154279991984367">
        <ele>51</ele>
        <time>2022-07-13T13:06:43Z</time>
      </trkpt>
      <trkpt lat="47.130349958315492" lon="-0.154309999197721">
        <ele>51</ele>
        <time>2022-07-13T13:06:40Z</time>
      </trkpt>
      <trkpt lat="47.130360016599298" lon="-0.154360039159656">
        <ele>52</ele>
        <time>2022-07-13T13:06:37Z</time>
      </trkpt>
      <trkpt lat="47.130379965528846" lon="-0.154400020837784">
        <ele>52</ele>
        <time>2022-07-13T13:06:34Z</time>
      </trkpt>
      <trkpt lat="47.130390023812652" lon="-0.154430028051138">
        <ele>51</ele>
        <time>2022-07-13T13:06:31Z</time>
      </trkpt>
      <trkpt lat="47.130379965528846" lon="-0.154470009729266">
        <ele>52</ele>
        <time>2022-07-13T13:06:28Z</time>
      </trkpt>
      <trkpt lat="47.130379965528846" lon="-0.15450001694262">
        <ele>52</ele>
        <time>2022-07-13T13:06:23Z</time>
      </trkpt>
      <trkpt lat="47.130399998277426" lon="-0.154530024155974">
        <ele>53</ele>
        <time>2022-07-13T13:05:59Z</time>
      </trkpt>
      <trkpt lat="47.130390023812652" lon="-0.154570005834103">
        <ele>52</ele>
        <time>2022-07-13T13:05:55Z</time>
      </trkpt>
      <trkpt lat="47.130390023812652" lon="-0.154609987512231">
        <ele>52</ele>
        <time>2022-07-13T13:05:51Z</time>
      </trkpt>
      <trkpt lat="47.130390023812652" lon="-0.154649969190359">
        <ele>53</ele>
        <time>2022-07-13T13:05:48Z</time>
      </trkpt>
      <trkpt lat="47.130399998277426" lon="-0.154700009152293">
        <ele>54</ele>
        <time>2022-07-13T13:05:45Z</time>
      </trkpt>
      <trkpt lat="47.1304099727422" lon="-0.154739990830421">
        <ele>56</ele>
        <time>2022-07-13T13:05:43Z</time>
      </trkpt>
      <trkpt lat="47.13043000549078" lon="-0.154790030792356">
        <ele>57</ele>
        <time>2022-07-13T13:05:41Z</time>
      </trkpt>
      <trkpt lat="47.13045003823936" lon="-0.15482003800571">
        <ele>57</ele>
        <time>2022-07-13T13:05:39Z</time>
      </trkpt>
      <trkpt lat="47.130479961633682" lon="-0.154860019683838">
        <ele>56</ele>
        <time>2022-07-13T13:05:36Z</time>
      </trkpt>
      <trkpt lat="47.130499994382262" lon="-0.154900001361966">
        <ele>56</ele>
        <time>2022-07-13T13:05:33Z</time>
      </trkpt>
      <trkpt lat="47.130520027130842" lon="-0.154920034110546">
        <ele>56</ele>
        <time>2022-07-13T13:05:27Z</time>
      </trkpt>
      <trkpt lat="47.130550034344196" lon="-0.154939983040094">
        <ele>57</ele>
        <time>2022-07-13T13:05:23Z</time>
      </trkpt>
      <trkpt lat="47.130569983273745" lon="-0.154960015788674">
        <ele>57</ele>
        <time>2022-07-13T13:05:21Z</time>
      </trkpt>
      <trkpt lat="47.130590016022325" lon="-0.154990023002028">
        <ele>57</ele>
        <time>2022-07-13T13:05:19Z</time>
      </trkpt>
      <trkpt lat="47.130609964951873" lon="-0.155030004680157">
        <ele>56</ele>
        <time>2022-07-13T13:05:16Z</time>
      </trkpt>
      <trkpt lat="47.130629997700453" lon="-0.155069986358285">
        <ele>55</ele>
        <time>2022-07-13T13:05:12Z</time>
      </trkpt>
      <trkpt lat="47.130660004913807" lon="-0.155099993571639">
        <ele>54</ele>
        <time>2022-07-13T13:05:08Z</time>
      </trkpt>
      <trkpt lat="47.130680037662387" lon="-0.155120026320219">
        <ele>53</ele>
        <time>2022-07-13T13:05:05Z</time>
      </trkpt>
      <trkpt lat="47.130709961056709" lon="-0.155150033533573">
        <ele>52</ele>
        <time>2022-07-13T13:05:02Z</time>
      </trkpt>
      <trkpt lat="47.130729993805289" lon="-0.155190015211701">
        <ele>51</ele>
        <time>2022-07-13T13:04:59Z</time>
      </trkpt>
      <trkpt lat="47.130750026553869" lon="-0.15522999688983">
        <ele>50</ele>
        <time>2022-07-13T13:04:55Z</time>
      </trkpt>
      <trkpt lat="47.130769975483418" lon="-0.155269978567958">
        <ele>51</ele>
        <time>2022-07-13T13:04:52Z</time>
      </trkpt>
      <trkpt lat="47.130799982696772" lon="-0.155299985781312">
        <ele>51</ele>
        <time>2022-07-13T13:04:49Z</time>
      </trkpt>
      <trkpt lat="47.130820015445352" lon="-0.155329992994666">
        <ele>51</ele>
        <time>2022-07-13T13:04:46Z</time>
      </trkpt>
      <trkpt lat="47.1308399643749" lon="-0.15536000020802">
        <ele>51</ele>
        <time>2022-07-13T13:04:44Z</time>
      </trkpt>
      <trkpt lat="47.13085999712348" lon="-0.155390007421374">
        <ele>51</ele>
        <time>2022-07-13T13:04:42Z</time>
      </trkpt>
      <trkpt lat="47.130890004336834" lon="-0.155429989099503">
        <ele>52</ele>
        <time>2022-07-13T13:04:39Z</time>
      </trkpt>
      <trkpt lat="47.130920011550188" lon="-0.155450021848083">
        <ele>52</ele>
        <time>2022-07-13T13:04:36Z</time>
      </trkpt>
      <trkpt lat="47.130939960479736" lon="-0.155480029061437">
        <ele>52</ele>
        <time>2022-07-13T13:04:34Z</time>
      </trkpt>
      <trkpt lat="47.13096996769309" lon="-0.155520010739565">
        <ele>52</ele>
        <time>2022-07-13T13:04:31Z</time>
      </trkpt>
      <trkpt lat="47.13099000044167" lon="-0.155569966882467">
        <ele>51</ele>
        <time>2022-07-13T13:04:28Z</time>
      </trkpt>
      <trkpt lat="47.13101003319025" lon="-0.155599974095821">
        <ele>51</ele>
        <time>2022-07-13T13:04:26Z</time>
      </trkpt>
      <trkpt lat="47.131029982119799" lon="-0.155629981309175">
        <ele>52</ele>
        <time>2022-07-13T13:04:24Z</time>
      </trkpt>
      <trkpt lat="47.131059989333153" lon="-0.155669962987304">
        <ele>52</ele>
        <time>2022-07-13T13:04:21Z</time>
      </trkpt>
      <trkpt lat="47.131080022081733" lon="-0.155689995735884">
        <ele>52</ele>
        <time>2022-07-13T13:04:19Z</time>
      </trkpt>
      <trkpt lat="47.131110029295087" lon="-0.155710028484464">
        <ele>50</ele>
        <time>2022-07-13T13:04:04Z</time>
      </trkpt>
      <trkpt lat="47.131140036508441" lon="-0.155699970200658">
        <ele>50</ele>
        <time>2022-07-13T13:04:01Z</time>
      </trkpt>
      <trkpt lat="47.131180018186569" lon="-0.155699970200658">
        <ele>49</ele>
        <time>2022-07-13T13:03:58Z</time>
      </trkpt>
      <trkpt lat="47.131210025399923" lon="-0.155699970200658">
        <ele>49</ele>
        <time>2022-07-13T13:03:56Z</time>
      </trkpt>
      <trkpt lat="47.131240032613277" lon="-0.155699970200658">
        <ele>49</ele>
        <time>2022-07-13T13:03:54Z</time>
      </trkpt>
      <trkpt lat="47.131270039826632" lon="-0.155720002949238">
        <ele>49</ele>
        <time>2022-07-13T13:03:51Z</time>
      </trkpt>
      <trkpt lat="47.131299963220954" lon="-0.155740035697818">
        <ele>49</ele>
        <time>2022-07-13T13:03:48Z</time>
      </trkpt>
      <trkpt lat="47.131329970434308" lon="-0.155759984627366">
        <ele>50</ele>
        <time>2022-07-13T13:03:45Z</time>
      </trkpt>
      <trkpt lat="47.131350003182888" lon="-0.155799966305494">
        <ele>51</ele>
        <time>2022-07-13T13:03:43Z</time>
      </trkpt>
      <trkpt lat="47.131370035931468" lon="-0.155840031802654">
        <ele>51</ele>
        <time>2022-07-13T13:03:40Z</time>
      </trkpt>
      <trkpt lat="47.131380010396242" lon="-0.155880013480783">
        <ele>51</ele>
        <time>2022-07-13T13:03:38Z</time>
      </trkpt>
      <trkpt lat="47.131389984861016" lon="-0.155919995158911">
        <ele>51</ele>
        <time>2022-07-13T13:03:35Z</time>
      </trkpt>
      <trkpt lat="47.131410017609596" lon="-0.155950002372265">
        <ele>52</ele>
        <time>2022-07-13T13:03:32Z</time>
      </trkpt>
      <trkpt lat="47.13144002482295" lon="-0.155970035120845">
        <ele>52</ele>
        <time>2022-07-13T13:03:29Z</time>
      </trkpt>
      <trkpt lat="47.131459973752499" lon="-0.155980009585619">
        <ele>52</ele>
        <time>2022-07-13T13:03:26Z</time>
      </trkpt>
      <trkpt lat="47.131459973752499" lon="-0.155980009585619">
        <ele>53</ele>
        <time>2022-07-13T13:03:19Z</time>
      </trkpt>
      <trkpt lat="47.131429966539145" lon="-0.155980009585619">
        <ele>55</ele>
        <time>2022-07-13T13:03:12Z</time>
      </trkpt>
      <trkpt lat="47.13139995932579" lon="-0.155959976837039">
        <ele>55</ele>
        <time>2022-07-13T13:03:09Z</time>
      </trkpt>
      <trkpt lat="47.131380010396242" lon="-0.155929969623685">
        <ele>56</ele>
        <time>2022-07-13T13:02:40Z</time>
      </trkpt>
      <trkpt lat="47.131380010396242" lon="-0.155889987945557">
        <ele>56</ele>
        <time>2022-07-13T13:02:35Z</time>
      </trkpt>
      <trkpt lat="47.131389984861016" lon="-0.155850006267428">
        <ele>56</ele>
        <time>2022-07-13T13:02:31Z</time>
      </trkpt>
      <trkpt lat="47.13139995932579" lon="-0.155819999054074">
        <ele>56</ele>
        <time>2022-07-13T13:02:27Z</time>
      </trkpt>
      <trkpt lat="47.131429966539145" lon="-0.155799966305494">
        <ele>56</ele>
        <time>2022-07-13T13:02:25Z</time>
      </trkpt>
      <trkpt lat="47.131459973752499" lon="-0.155799966305494">
        <ele>56</ele>
        <time>2022-07-13T13:02:23Z</time>
      </trkpt>
      <trkpt lat="47.131489980965853" lon="-0.15576995909214">
        <ele>56</ele>
        <time>2022-07-13T13:02:21Z</time>
      </trkpt>
      <trkpt lat="47.131510013714433" lon="-0.155729977414012">
        <ele>56</ele>
        <time>2022-07-13T13:02:19Z</time>
      </trkpt>
      <trkpt lat="47.131519988179207" lon="-0.155689995735884">
        <ele>56</ele>
        <time>2022-07-13T13:02:17Z</time>
      </trkpt>
      <trkpt lat="47.131549995392561" lon="-0.155669962987304">
        <ele>56</ele>
        <time>2022-07-13T13:02:15Z</time>
      </trkpt>
      <trkpt lat="47.131580002605915" lon="-0.155629981309175">
        <ele>55</ele>
        <time>2022-07-13T13:02:12Z</time>
      </trkpt>
      <trkpt lat="47.131610009819269" lon="-0.155610032379627">
        <ele>55</ele>
        <time>2022-07-13T13:02:09Z</time>
      </trkpt>
      <trkpt lat="47.131640017032623" lon="-0.155580025166273">
        <ele>55</ele>
        <time>2022-07-13T13:02:07Z</time>
      </trkpt>
      <trkpt lat="47.131670024245977" lon="-0.155559992417693">
        <ele>56</ele>
        <time>2022-07-13T13:02:04Z</time>
      </trkpt>
      <trkpt lat="47.131700031459332" lon="-0.155529985204339">
        <ele>56</ele>
        <time>2022-07-13T13:02:01Z</time>
      </trkpt>
      <trkpt lat="47.131700031459332" lon="-0.155499977990985">
        <ele>57</ele>
        <time>2022-07-13T13:01:57Z</time>
      </trkpt>
      <trkpt lat="47.131679998710752" lon="-0.155480029061437">
        <ele>59</ele>
        <time>2022-07-13T13:01:54Z</time>
      </trkpt>
      <trkpt lat="47.131679998710752" lon="-0.155469970777631">
        <ele>62</ele>
        <time>2022-07-13T13:01:49Z</time>
      </trkpt>
      <trkpt lat="47.131689973175526" lon="-0.155510036274791">
        <ele>64</ele>
        <time>2022-07-13T13:01:47Z</time>
      </trkpt>
      <trkpt lat="47.131700031459332" lon="-0.155550017952919">
        <ele>64</ele>
        <time>2022-07-13T13:01:45Z</time>
      </trkpt>
      <trkpt lat="47.13171998038888" lon="-0.155589999631047">
        <ele>64</ele>
        <time>2022-07-13T13:01:43Z</time>
      </trkpt>
      <trkpt lat="47.13174001313746" lon="-0.155620006844401">
        <ele>63</ele>
        <time>2022-07-13T13:01:40Z</time>
      </trkpt>
      <trkpt lat="47.131759962067008" lon="-0.15565998852253">
        <ele>63</ele>
        <time>2022-07-13T13:01:37Z</time>
      </trkpt>
      <trkpt lat="47.131770020350814" lon="-0.155699970200658">
        <ele>63</ele>
        <time>2022-07-13T13:01:34Z</time>
      </trkpt>
      <trkpt lat="47.131800027564168" lon="-0.155729977414012">
        <ele>62</ele>
        <time>2022-07-13T13:01:31Z</time>
      </trkpt>
      <trkpt lat="47.131819976493716" lon="-0.15576995909214">
        <ele>62</ele>
        <time>2022-07-13T13:01:28Z</time>
      </trkpt>
      <trkpt lat="47.131840009242296" lon="-0.1558100245893">
        <ele>62</ele>
        <time>2022-07-13T13:01:26Z</time>
      </trkpt>
      <trkpt lat="47.131859958171844" lon="-0.155850006267428">
        <ele>63</ele>
        <time>2022-07-13T13:01:23Z</time>
      </trkpt>
      <trkpt lat="47.131879990920424" lon="-0.155889987945557">
        <ele>62</ele>
        <time>2022-07-13T13:01:20Z</time>
      </trkpt>
      <trkpt lat="47.131900023669004" lon="-0.155929969623685">
        <ele>63</ele>
        <time>2022-07-13T13:01:17Z</time>
      </trkpt>
      <trkpt lat="47.131909998133779" lon="-0.155970035120845">
        <ele>63</ele>
        <time>2022-07-13T13:01:15Z</time>
      </trkpt>
      <trkpt lat="47.131930030882359" lon="-0.156019991263747">
        <ele>64</ele>
        <time>2022-07-13T13:01:12Z</time>
      </trkpt>
      <trkpt lat="47.131940005347133" lon="-0.156049998477101">
        <ele>64</ele>
        <time>2022-07-13T13:01:09Z</time>
      </trkpt>
      <trkpt lat="47.131940005347133" lon="-0.15608998015523">
        <ele>64</ele>
        <time>2022-07-13T13:01:06Z</time>
      </trkpt>
      <trkpt lat="47.131919972598553" lon="-0.15611001290381">
        <ele>64</ele>
        <time>2022-07-13T13:00:49Z</time>
      </trkpt>
      <trkpt lat="47.131900023669004" lon="-0.156100038439035">
        <ele>66</ele>
        <time>2022-07-13T13:00:36Z</time>
      </trkpt>
      <trkpt lat="47.131879990920424" lon="-0.156129961833358">
        <ele>69</ele>
        <time>2022-07-13T13:00:09Z</time>
      </trkpt>
      <trkpt lat="47.13187001645565" lon="-0.156159969046712">
        <ele>73</ele>
        <time>2022-07-13T13:00:00Z</time>
      </trkpt>
      <trkpt lat="47.131840009242296" lon="-0.156189976260066">
        <ele>74</ele>
        <time>2022-07-13T12:59:58Z</time>
      </trkpt>
      <trkpt lat="47.131819976493716" lon="-0.15621998347342">
        <ele>74</ele>
        <time>2022-07-13T12:59:55Z</time>
      </trkpt>
      <trkpt lat="47.131800027564168" lon="-0.156249990686774">
        <ele>73</ele>
        <time>2022-07-13T12:59:52Z</time>
      </trkpt>
      <trkpt lat="47.131779994815588" lon="-0.156279997900128">
        <ele>72</ele>
        <time>2022-07-13T12:59:49Z</time>
      </trkpt>
      <trkpt lat="47.131770020350814" lon="-0.156319979578257">
        <ele>71</ele>
        <time>2022-07-13T12:59:44Z</time>
      </trkpt>
      <trkpt lat="47.131749987602234" lon="-0.156349986791611">
        <ele>70</ele>
        <time>2022-07-13T12:59:41Z</time>
      </trkpt>
      <trkpt lat="47.131730038672686" lon="-0.156400026753545">
        <ele>68</ele>
        <time>2022-07-13T12:59:37Z</time>
      </trkpt>
      <trkpt lat="47.13171998038888" lon="-0.156430033966899">
        <ele>66</ele>
        <time>2022-07-13T12:59:34Z</time>
      </trkpt>
      <trkpt lat="47.131700031459332" lon="-0.156470015645027">
        <ele>65</ele>
        <time>2022-07-13T12:59:31Z</time>
      </trkpt>
      <trkpt lat="47.131679998710752" lon="-0.156500022858381">
        <ele>63</ele>
        <time>2022-07-13T12:59:29Z</time>
      </trkpt>
      <trkpt lat="47.131670024245977" lon="-0.156530030071735">
        <ele>62</ele>
        <time>2022-07-13T12:59:26Z</time>
      </trkpt>
      <trkpt lat="47.131649991497397" lon="-0.15654000453651">
        <ele>61</ele>
        <time>2022-07-13T12:59:06Z</time>
      </trkpt>
      <trkpt lat="47.131649991497397" lon="-0.156530030071735">
        <ele>64</ele>
        <time>2022-07-13T12:58:36Z</time>
      </trkpt>
      <trkpt lat="47.131629958748817" lon="-0.156570011749864">
        <ele>66</ele>
        <time>2022-07-13T12:58:30Z</time>
      </trkpt>
      <trkpt lat="47.131600035354495" lon="-0.156589960679412">
        <ele>64</ele>
        <time>2022-07-13T12:58:16Z</time>
      </trkpt>
      <trkpt lat="47.131600035354495" lon="-0.156630026176572">
        <ele>59</ele>
        <time>2022-07-13T12:58:10Z</time>
      </trkpt>
      <trkpt lat="47.131589977070689" lon="-0.1566700078547">
        <ele>54</ele>
        <time>2022-07-13T12:57:48Z</time>
      </trkpt>
      <trkpt lat="47.131589977070689" lon="-0.15669004060328">
        <ele>50</ele>
        <time>2022-07-13T12:57:38Z</time>
      </trkpt>
      <trkpt lat="47.131559969857335" lon="-0.156700015068054">
        <ele>48</ele>
        <time>2022-07-13T12:57:33Z</time>
      </trkpt>
      <trkpt lat="47.131540020927787" lon="-0.156679982319474">
        <ele>48</ele>
        <time>2022-07-13T12:57:30Z</time>
      </trkpt>
      <trkpt lat="47.131529962643981" lon="-0.156679982319474">
        <ele>47</ele>
        <time>2022-07-13T12:57:23Z</time>
      </trkpt>
      <trkpt lat="47.131540020927787" lon="-0.156719963997602">
        <ele>48</ele>
        <time>2022-07-13T12:57:20Z</time>
      </trkpt>
      <trkpt lat="47.131529962643981" lon="-0.156749971210957">
        <ele>49</ele>
        <time>2022-07-13T12:57:16Z</time>
      </trkpt>
      <trkpt lat="47.131519988179207" lon="-0.156760029494762">
        <ele>51</ele>
        <time>2022-07-13T12:57:00Z</time>
      </trkpt>
      <trkpt lat="47.131510013714433" lon="-0.156719963997602">
        <ele>51</ele>
        <time>2022-07-13T12:56:57Z</time>
      </trkpt>
      <trkpt lat="47.131510013714433" lon="-0.156679982319474">
        <ele>51</ele>
        <time>2022-07-13T12:56:54Z</time>
      </trkpt>
      <trkpt lat="47.131510013714433" lon="-0.156660033389926">
        <ele>49</ele>
        <time>2022-07-13T12:56:51Z</time>
      </trkpt>
      <trkpt lat="47.131540020927787" lon="-0.156679982319474">
        <ele>47</ele>
        <time>2022-07-13T12:56:18Z</time>
      </trkpt>
      <trkpt lat="47.131549995392561" lon="-0.156719963997602">
        <ele>46</ele>
        <time>2022-07-13T12:56:04Z</time>
      </trkpt>
      <trkpt lat="47.131559969857335" lon="-0.156760029494762">
        <ele>47</ele>
        <time>2022-07-13T12:56:01Z</time>
      </trkpt>
      <trkpt lat="47.131549995392561" lon="-0.156800011172891">
        <ele>48</ele>
        <time>2022-07-13T12:55:59Z</time>
      </trkpt>
      <trkpt lat="47.131540020927787" lon="-0.156839992851019">
        <ele>48</ele>
        <time>2022-07-13T12:55:55Z</time>
      </trkpt>
      <trkpt lat="47.131510013714433" lon="-0.156870000064373">
        <ele>49</ele>
        <time>2022-07-13T12:55:52Z</time>
      </trkpt>
      <trkpt lat="47.131480006501079" lon="-0.156890032812953">
        <ele>49</ele>
        <time>2022-07-13T12:55:50Z</time>
      </trkpt>
      <trkpt lat="47.131449999287724" lon="-0.156909981742501">
        <ele>49</ele>
        <time>2022-07-13T12:55:48Z</time>
      </trkpt>
      <trkpt lat="47.13141999207437" lon="-0.156930014491081">
        <ele>49</ele>
        <time>2022-07-13T12:55:46Z</time>
      </trkpt>
      <trkpt lat="47.13139995932579" lon="-0.156960021704435">
        <ele>48</ele>
        <time>2022-07-13T12:55:44Z</time>
      </trkpt>
      <trkpt lat="47.131370035931468" lon="-0.156990028917789">
        <ele>47</ele>
        <time>2022-07-13T12:55:41Z</time>
      </trkpt>
      <trkpt lat="47.131340028718114" lon="-0.157009977847338">
        <ele>47</ele>
        <time>2022-07-13T12:55:39Z</time>
      </trkpt>
      <trkpt lat="47.13131002150476" lon="-0.157039985060692">
        <ele>47</ele>
        <time>2022-07-13T12:55:36Z</time>
      </trkpt>
      <trkpt lat="47.131280014291406" lon="-0.157069992274046">
        <ele>46</ele>
        <time>2022-07-13T12:55:33Z</time>
      </trkpt>
      <trkpt lat="47.131259981542826" lon="-0.157109973952174">
        <ele>45</ele>
        <time>2022-07-13T12:55:30Z</time>
      </trkpt>
      <trkpt lat="47.131240032613277" lon="-0.157130006700754">
        <ele>45</ele>
        <time>2022-07-13T12:55:27Z</time>
      </trkpt>
      <trkpt lat="47.131210025399923" lon="-0.157150039449334">
        <ele>45</ele>
        <time>2022-07-13T12:55:24Z</time>
      </trkpt>
      <trkpt lat="47.131180018186569" lon="-0.157179962843657">
        <ele>44</ele>
        <time>2022-07-13T12:55:14Z</time>
      </trkpt>
      <trkpt lat="47.131159985437989" lon="-0.157209970057011">
        <ele>44</ele>
        <time>2022-07-13T12:55:10Z</time>
      </trkpt>
      <trkpt lat="47.131150010973215" lon="-0.157220028340817">
        <ele>44</ele>
        <time>2022-07-13T12:54:39Z</time>
      </trkpt>
      <trkpt lat="47.131159985437989" lon="-0.157209970057011">
        <ele>43</ele>
        <time>2022-07-13T12:54:30Z</time>
      </trkpt>
      <trkpt lat="47.131150010973215" lon="-0.157250035554171">
        <ele>44</ele>
        <time>2022-07-13T12:54:26Z</time>
      </trkpt>
      <trkpt lat="47.131140036508441" lon="-0.157299991697073">
        <ele>45</ele>
        <time>2022-07-13T12:54:23Z</time>
      </trkpt>
      <trkpt lat="47.131150010973215" lon="-0.157350031659007">
        <ele>45</ele>
        <time>2022-07-13T12:54:19Z</time>
      </trkpt>
      <trkpt lat="47.131169959902763" lon="-0.157390013337135">
        <ele>46</ele>
        <time>2022-07-13T12:54:16Z</time>
      </trkpt>
      <trkpt lat="47.131180018186569" lon="-0.157420020550489">
        <ele>46</ele>
        <time>2022-07-13T12:54:14Z</time>
      </trkpt>
      <trkpt lat="47.131199967116117" lon="-0.157469976693392">
        <ele>46</ele>
        <time>2022-07-13T12:54:12Z</time>
      </trkpt>
      <trkpt lat="47.131219999864697" lon="-0.15750995837152">
        <ele>46</ele>
        <time>2022-07-13T12:54:09Z</time>
      </trkpt>
      <trkpt lat="47.131250007078052" lon="-0.15755002386868">
        <ele>46</ele>
        <time>2022-07-13T12:54:06Z</time>
      </trkpt>
      <trkpt lat="47.131259981542826" lon="-0.157580031082034">
        <ele>46</ele>
        <time>2022-07-13T12:54:04Z</time>
      </trkpt>
      <trkpt lat="47.131280014291406" lon="-0.157599980011582">
        <ele>47</ele>
        <time>2022-07-13T12:54:01Z</time>
      </trkpt>
      <trkpt lat="47.13128998875618" lon="-0.157599980011582">
        <ele>47</ele>
        <time>2022-07-13T12:53:54Z</time>
      </trkpt>
      <trkpt lat="47.131270039826632" lon="-0.157569972798228">
        <ele>47</ele>
        <time>2022-07-13T12:53:52Z</time>
      </trkpt>
      <trkpt lat="47.131250007078052" lon="-0.1575299911201">
        <ele>47</ele>
        <time>2022-07-13T12:53:49Z</time>
      </trkpt>
      <trkpt lat="47.131229974329472" lon="-0.157490009441972">
        <ele>47</ele>
        <time>2022-07-13T12:53:46Z</time>
      </trkpt>
      <trkpt lat="47.131210025399923" lon="-0.157450027763844">
        <ele>47</ele>
        <time>2022-07-13T12:53:43Z</time>
      </trkpt>
      <trkpt lat="47.131189992651343" lon="-0.157409962266684">
        <ele>47</ele>
        <time>2022-07-13T12:53:40Z</time>
      </trkpt>
      <trkpt lat="47.131169959902763" lon="-0.157360006123781">
        <ele>47</ele>
        <time>2022-07-13T12:53:37Z</time>
      </trkpt>
      <trkpt lat="47.131159985437989" lon="-0.157320024445653">
        <ele>48</ele>
        <time>2022-07-13T12:53:34Z</time>
      </trkpt>
      <trkpt lat="47.131140036508441" lon="-0.157279958948493">
        <ele>49</ele>
        <time>2022-07-13T12:53:27Z</time>
      </trkpt>
      <trkpt lat="47.131110029295087" lon="-0.157239977270365">
        <ele>49</ele>
        <time>2022-07-13T12:53:24Z</time>
      </trkpt>
      <trkpt lat="47.131089996546507" lon="-0.157209970057011">
        <ele>49</ele>
        <time>2022-07-13T12:53:22Z</time>
      </trkpt>
      <trkpt lat="47.131069963797927" lon="-0.157169988378882">
        <ele>49</ele>
        <time>2022-07-13T12:53:11Z</time>
      </trkpt>
      <trkpt lat="47.131059989333153" lon="-0.157130006700754">
        <ele>50</ele>
        <time>2022-07-13T12:53:07Z</time>
      </trkpt>
      <trkpt lat="47.131050014868379" lon="-0.15707996673882">
        <ele>51</ele>
        <time>2022-07-13T12:53:04Z</time>
      </trkpt>
      <trkpt lat="47.131040040403605" lon="-0.157039985060692">
        <ele>51</ele>
        <time>2022-07-13T12:53:01Z</time>
      </trkpt>
      <trkpt lat="47.131020007655025" lon="-0.157009977847338">
        <ele>51</ele>
        <time>2022-07-13T12:52:58Z</time>
      </trkpt>
      <trkpt lat="47.13099000044167" lon="-0.156969996169209">
        <ele>51</ele>
        <time>2022-07-13T12:52:55Z</time>
      </trkpt>
      <trkpt lat="47.13096996769309" lon="-0.156930014491081">
        <ele>51</ele>
        <time>2022-07-13T12:52:52Z</time>
      </trkpt>
      <trkpt lat="47.130959993228316" lon="-0.156900007277727">
        <ele>51</ele>
        <time>2022-07-13T12:52:49Z</time>
      </trkpt>
      <trkpt lat="47.130950018763542" lon="-0.156870000064373">
        <ele>51</ele>
        <time>2022-07-13T12:52:46Z</time>
      </trkpt>
      <trkpt lat="47.130920011550188" lon="-0.156870000064373">
        <ele>52</ele>
        <time>2022-07-13T12:52:20Z</time>
      </trkpt>
      <trkpt lat="47.130899978801608" lon="-0.156839992851019">
        <ele>51</ele>
        <time>2022-07-13T12:52:16Z</time>
      </trkpt>
      <trkpt lat="47.13088002987206" lon="-0.156809985637665">
        <ele>51</ele>
        <time>2022-07-13T12:52:13Z</time>
      </trkpt>
      <trkpt lat="47.130850022658706" lon="-0.156779978424311">
        <ele>51</ele>
        <time>2022-07-13T12:52:11Z</time>
      </trkpt>
      <trkpt lat="47.130829989910126" lon="-0.156749971210957">
        <ele>51</ele>
        <time>2022-07-13T12:52:08Z</time>
      </trkpt>
      <trkpt lat="47.130799982696772" lon="-0.156719963997602">
        <ele>51</ele>
        <time>2022-07-13T12:52:06Z</time>
      </trkpt>
      <trkpt lat="47.130780033767223" lon="-0.156700015068054">
        <ele>51</ele>
        <time>2022-07-13T12:51:34Z</time>
      </trkpt>
      <trkpt lat="47.130769975483418" lon="-0.156660033389926">
        <ele>51</ele>
        <time>2022-07-13T12:51:31Z</time>
      </trkpt>
      <trkpt lat="47.130750026553869" lon="-0.156630026176572">
        <ele>50</ele>
        <time>2022-07-13T12:51:28Z</time>
      </trkpt>
      <trkpt lat="47.130720019340515" lon="-0.156609993427992">
        <ele>50</ele>
        <time>2022-07-13T12:51:26Z</time>
      </trkpt>
      <trkpt lat="47.130709961056709" lon="-0.156570011749864">
        <ele>50</ele>
        <time>2022-07-13T12:51:23Z</time>
      </trkpt>
      <trkpt lat="47.130690012127161" lon="-0.156530030071735">
        <ele>50</ele>
        <time>2022-07-13T12:51:20Z</time>
      </trkpt>
      <trkpt lat="47.130669979378581" lon="-0.156479990109801">
        <ele>51</ele>
        <time>2022-07-13T12:51:17Z</time>
      </trkpt>
      <trkpt lat="47.130660004913807" lon="-0.156440008431673">
        <ele>50</ele>
        <time>2022-07-13T12:51:15Z</time>
      </trkpt>
      <trkpt lat="47.130650030449033" lon="-0.156400026753545">
        <ele>50</ele>
        <time>2022-07-13T12:51:13Z</time>
      </trkpt>
      <trkpt lat="47.130629997700453" lon="-0.156359961256385">
        <ele>49</ele>
        <time>2022-07-13T12:51:10Z</time>
      </trkpt>
      <trkpt lat="47.130620023235679" lon="-0.156310005113482">
        <ele>49</ele>
        <time>2022-07-13T12:51:07Z</time>
      </trkpt>
      <trkpt lat="47.130609964951873" lon="-0.156270023435354">
        <ele>49</ele>
        <time>2022-07-13T12:51:05Z</time>
      </trkpt>
      <trkpt lat="47.13058004155755" lon="-0.156240016222">
        <ele>49</ele>
        <time>2022-07-13T12:51:02Z</time>
      </trkpt>
      <trkpt lat="47.13056000880897" lon="-0.156200034543872">
        <ele>49</ele>
        <time>2022-07-13T12:50:59Z</time>
      </trkpt>
      <trkpt lat="47.13053997606039" lon="-0.156159969046712">
        <ele>48</ele>
        <time>2022-07-13T12:50:56Z</time>
      </trkpt>
      <trkpt lat="47.130520027130842" lon="-0.156129961833358">
        <ele>48</ele>
        <time>2022-07-13T12:50:54Z</time>
      </trkpt>
      <trkpt lat="47.130499994382262" lon="-0.15608998015523">
        <ele>48</ele>
        <time>2022-07-13T12:50:52Z</time>
      </trkpt>
      <trkpt lat="47.130479961633682" lon="-0.156049998477101">
        <ele>48</ele>
        <time>2022-07-13T12:50:50Z</time>
      </trkpt>
      <trkpt lat="47.130460012704134" lon="-0.156010016798973">
        <ele>48</ele>
        <time>2022-07-13T12:50:48Z</time>
      </trkpt>
      <trkpt lat="47.130439979955554" lon="-0.155970035120845">
        <ele>48</ele>
        <time>2022-07-13T12:50:45Z</time>
      </trkpt>
      <trkpt lat="47.1304099727422" lon="-0.155929969623685">
        <ele>49</ele>
        <time>2022-07-13T12:50:42Z</time>
      </trkpt>
      <trkpt lat="47.130390023812652" lon="-0.155889987945557">
        <ele>49</ele>
        <time>2022-07-13T12:50:39Z</time>
      </trkpt>
      <trkpt lat="47.130369991064072" lon="-0.155850006267428">
        <ele>49</ele>
        <time>2022-07-13T12:50:36Z</time>
      </trkpt>
      <trkpt lat="47.130339983850718" lon="-0.1558100245893">
        <ele>50</ele>
        <time>2022-07-13T12:50:34Z</time>
      </trkpt>
      <trkpt lat="47.130320034921169" lon="-0.155780017375946">
        <ele>50</ele>
        <time>2022-07-13T12:50:31Z</time>
      </trkpt>
      <trkpt lat="47.130290027707815" lon="-0.155740035697818">
        <ele>51</ele>
        <time>2022-07-13T12:50:28Z</time>
      </trkpt>
      <trkpt lat="47.130269994959235" lon="-0.155710028484464">
        <ele>51</ele>
        <time>2022-07-13T12:50:26Z</time>
      </trkpt>
      <trkpt lat="47.130249962210655" lon="-0.15568002127111">
        <ele>52</ele>
        <time>2022-07-13T12:50:23Z</time>
      </trkpt>
      <trkpt lat="47.130230013281107" lon="-0.155650014057755">
        <ele>52</ele>
        <time>2022-07-13T12:50:21Z</time>
      </trkpt>
      <trkpt lat="47.130209980532527" lon="-0.155610032379627">
        <ele>53</ele>
        <time>2022-07-13T12:50:19Z</time>
      </trkpt>
      <trkpt lat="47.130190031602979" lon="-0.155559992417693">
        <ele>53</ele>
        <time>2022-07-13T12:50:17Z</time>
      </trkpt>
      <trkpt lat="47.130160024389625" lon="-0.155520010739565">
        <ele>53</ele>
        <time>2022-07-13T12:50:15Z</time>
      </trkpt>
      <trkpt lat="47.130139991641045" lon="-0.155480029061437">
        <ele>54</ele>
        <time>2022-07-13T12:50:12Z</time>
      </trkpt>
      <trkpt lat="47.130119958892465" lon="-0.155439963564277">
        <ele>54</ele>
        <time>2022-07-13T12:50:09Z</time>
      </trkpt>
      <trkpt lat="47.130100009962916" lon="-0.155399981886148">
        <ele>55</ele>
        <time>2022-07-13T12:50:07Z</time>
      </trkpt>
      <trkpt lat="47.130070002749562" lon="-0.1553800329566">
        <ele>56</ele>
        <time>2022-07-13T12:50:03Z</time>
      </trkpt>
      <trkpt lat="47.130039995536208" lon="-0.155399981886148">
        <ele>57</ele>
        <time>2022-07-13T12:49:59Z</time>
      </trkpt>
      <trkpt lat="47.130009988322854" lon="-0.155429989099503">
        <ele>58</ele>
        <time>2022-07-13T12:49:57Z</time>
      </trkpt>
      <trkpt lat="47.1299799811095" lon="-0.155469970777631">
        <ele>59</ele>
        <time>2022-07-13T12:49:54Z</time>
      </trkpt>
      <trkpt lat="47.129960032179952" lon="-0.155510036274791">
        <ele>60</ele>
        <time>2022-07-13T12:49:51Z</time>
      </trkpt>
      <trkpt lat="47.129939999431372" lon="-0.155550017952919">
        <ele>61</ele>
        <time>2022-07-13T12:49:48Z</time>
      </trkpt>
      <trkpt lat="47.129909992218018" lon="-0.155580025166273">
        <ele>62</ele>
        <time>2022-07-13T12:49:46Z</time>
      </trkpt>
      <trkpt lat="47.129889959469438" lon="-0.155610032379627">
        <ele>63</ele>
        <time>2022-07-13T12:49:44Z</time>
      </trkpt>
      <trkpt lat="47.129860036075115" lon="-0.155629981309175">
        <ele>64</ele>
        <time>2022-07-13T12:49:42Z</time>
      </trkpt>
      <trkpt lat="47.129840003326535" lon="-0.15565998852253">
        <ele>64</ele>
        <time>2022-07-13T12:49:40Z</time>
      </trkpt>
      <trkpt lat="47.129819970577955" lon="-0.155689995735884">
        <ele>63</ele>
        <time>2022-07-13T12:49:36Z</time>
      </trkpt>
      <trkpt lat="47.129789963364601" lon="-0.155720002949238">
        <ele>63</ele>
        <time>2022-07-13T12:49:33Z</time>
      </trkpt>
      <trkpt lat="47.129760039970279" lon="-0.155750010162592">
        <ele>61</ele>
        <time>2022-07-13T12:49:30Z</time>
      </trkpt>
      <trkpt lat="47.129730032756925" lon="-0.155780017375946">
        <ele>60</ele>
        <time>2022-07-13T12:49:27Z</time>
      </trkpt>
      <trkpt lat="47.129700025543571" lon="-0.15578999184072">
        <ele>59</ele>
        <time>2022-07-13T12:49:24Z</time>
      </trkpt>
      <trkpt lat="47.129670018330216" lon="-0.1558100245893">
        <ele>58</ele>
        <time>2022-07-13T12:49:21Z</time>
      </trkpt>
      <trkpt lat="47.129640011116862" lon="-0.155829973518848">
        <ele>58</ele>
        <time>2022-07-13T12:49:18Z</time>
      </trkpt>
      <trkpt lat="47.129610003903508" lon="-0.155859980732203">
        <ele>57</ele>
        <time>2022-07-13T12:49:15Z</time>
      </trkpt>
      <trkpt lat="47.129589971154928" lon="-0.155889987945557">
        <ele>56</ele>
        <time>2022-07-13T12:49:12Z</time>
      </trkpt>
      <trkpt lat="47.129559963941574" lon="-0.155919995158911">
        <ele>57</ele>
        <time>2022-07-13T12:49:09Z</time>
      </trkpt>
      <trkpt lat="47.129540015012026" lon="-0.155950002372265">
        <ele>57</ele>
        <time>2022-07-13T12:49:07Z</time>
      </trkpt>
      <trkpt lat="47.129530040547252" lon="-0.155989984050393">
        <ele>58</ele>
        <time>2022-07-13T12:49:05Z</time>
      </trkpt>
      <trkpt lat="47.129510007798672" lon="-0.156029965728521">
        <ele>59</ele>
        <time>2022-07-13T12:49:03Z</time>
      </trkpt>
      <trkpt lat="47.129500033333898" lon="-0.156070031225681">
        <ele>60</ele>
        <time>2022-07-13T12:49:01Z</time>
      </trkpt>
      <trkpt lat="47.129459967836738" lon="-0.15608998015523">
        <ele>60</ele>
        <time>2022-07-13T12:48:58Z</time>
      </trkpt>
      <trkpt lat="47.129429960623384" lon="-0.15611001290381">
        <ele>60</ele>
        <time>2022-07-13T12:48:55Z</time>
      </trkpt>
      <trkpt lat="47.129400037229061" lon="-0.156129961833358">
        <ele>59</ele>
        <time>2022-07-13T12:48:52Z</time>
      </trkpt>
      <trkpt lat="47.129380004480481" lon="-0.156140020117164">
        <ele>58</ele>
        <time>2022-07-13T12:48:49Z</time>
      </trkpt>
      <trkpt lat="47.129349997267127" lon="-0.156159969046712">
        <ele>57</ele>
        <time>2022-07-13T12:48:46Z</time>
      </trkpt>
      <trkpt lat="47.129329964518547" lon="-0.156189976260066">
        <ele>57</ele>
        <time>2022-07-13T12:48:44Z</time>
      </trkpt>
      <trkpt lat="47.129300041124225" lon="-0.156210009008646">
        <ele>56</ele>
        <time>2022-07-13T12:48:41Z</time>
      </trkpt>
      <trkpt lat="47.129289982840419" lon="-0.15621998347342">
        <ele>54</ele>
        <time>2022-07-13T12:48:24Z</time>
      </trkpt>
      <trkpt lat="47.129319990053773" lon="-0.156189976260066">
        <ele>52</ele>
        <time>2022-07-13T12:48:20Z</time>
      </trkpt>
      <trkpt lat="47.129340022802353" lon="-0.156159969046712">
        <ele>51</ele>
        <time>2022-07-13T12:48:17Z</time>
      </trkpt>
      <trkpt lat="47.129370030015707" lon="-0.156129961833358">
        <ele>50</ele>
        <time>2022-07-13T12:48:14Z</time>
      </trkpt>
      <trkpt lat="47.129400037229061" lon="-0.156100038439035">
        <ele>49</ele>
        <time>2022-07-13T12:48:11Z</time>
      </trkpt>
      <trkpt lat="47.129429960623384" lon="-0.156070031225681">
        <ele>49</ele>
        <time>2022-07-13T12:48:08Z</time>
      </trkpt>
      <trkpt lat="47.129449993371964" lon="-0.156059972941875">
        <ele>49</ele>
        <time>2022-07-13T12:48:05Z</time>
      </trkpt>
      <trkpt lat="47.129489975050092" lon="-0.156049998477101">
        <ele>49</ele>
        <time>2022-07-13T12:48:03Z</time>
      </trkpt>
      <trkpt lat="47.129510007798672" lon="-0.156049998477101">
        <ele>49</ele>
        <time>2022-07-13T12:48:01Z</time>
      </trkpt>
      <trkpt lat="47.129540015012026" lon="-0.156029965728521">
        <ele>49</ele>
        <time>2022-07-13T12:47:59Z</time>
      </trkpt>
      <trkpt lat="47.129559963941574" lon="-0.155999958515167">
        <ele>50</ele>
        <time>2022-07-13T12:47:57Z</time>
      </trkpt>
      <trkpt lat="47.129589971154928" lon="-0.155970035120845">
        <ele>51</ele>
        <time>2022-07-13T12:47:54Z</time>
      </trkpt>
      <trkpt lat="47.129610003903508" lon="-0.155950002372265">
        <ele>53</ele>
        <time>2022-07-13T12:47:51Z</time>
      </trkpt>
      <trkpt lat="47.129619978368282" lon="-0.155950002372265">
        <ele>53</ele>
        <time>2022-07-13T12:47:46Z</time>
      </trkpt>
      <trkpt lat="47.129600029438734" lon="-0.155989984050393">
        <ele>53</ele>
        <time>2022-07-13T12:47:32Z</time>
      </trkpt>
      <trkpt lat="47.129600029438734" lon="-0.156040024012327">
        <ele>54</ele>
        <time>2022-07-13T12:47:29Z</time>
      </trkpt>
      <trkpt lat="47.129610003903508" lon="-0.156080005690455">
        <ele>54</ele>
        <time>2022-07-13T12:47:26Z</time>
      </trkpt>
      <trkpt lat="47.129630036652088" lon="-0.15611001290381">
        <ele>55</ele>
        <time>2022-07-13T12:47:23Z</time>
      </trkpt>
      <trkpt lat="47.129649985581636" lon="-0.156140020117164">
        <ele>55</ele>
        <time>2022-07-13T12:47:20Z</time>
      </trkpt>
      <trkpt lat="47.129679992794991" lon="-0.156170027330518">
        <ele>55</ele>
        <time>2022-07-13T12:47:17Z</time>
      </trkpt>
      <trkpt lat="47.129719974473119" lon="-0.156200034543872">
        <ele>55</ele>
        <time>2022-07-13T12:47:14Z</time>
      </trkpt>
      <trkpt lat="47.129749981686473" lon="-0.156230041757226">
        <ele>54</ele>
        <time>2022-07-13T12:47:11Z</time>
      </trkpt>
      <trkpt lat="47.129779988899827" lon="-0.156259965151548">
        <ele>54</ele>
        <time>2022-07-13T12:47:08Z</time>
      </trkpt>
      <trkpt lat="47.129800021648407" lon="-0.156289972364903">
        <ele>54</ele>
        <time>2022-07-13T12:46:57Z</time>
      </trkpt>
      <trkpt lat="47.129819970577955" lon="-0.156330037862062">
        <ele>54</ele>
        <time>2022-07-13T12:46:54Z</time>
      </trkpt>
      <trkpt lat="47.129849977791309" lon="-0.156359961256385">
        <ele>54</ele>
        <time>2022-07-13T12:46:51Z</time>
      </trkpt>
      <trkpt lat="47.129870010539889" lon="-0.156389968469739">
        <ele>54</ele>
        <time>2022-07-13T12:46:49Z</time>
      </trkpt>
      <trkpt lat="47.129889959469438" lon="-0.156430033966899">
        <ele>54</ele>
        <time>2022-07-13T12:46:47Z</time>
      </trkpt>
      <trkpt lat="47.129909992218018" lon="-0.156470015645027">
        <ele>55</ele>
        <time>2022-07-13T12:46:44Z</time>
      </trkpt>
      <trkpt lat="47.129930024966598" lon="-0.156500022858381">
        <ele>56</ele>
        <time>2022-07-13T12:46:42Z</time>
      </trkpt>
      <trkpt lat="47.129960032179952" lon="-0.15654000453651">
        <ele>56</ele>
        <time>2022-07-13T12:46:39Z</time>
      </trkpt>
      <trkpt lat="47.129990039393306" lon="-0.156570011749864">
        <ele>56</ele>
        <time>2022-07-13T12:46:21Z</time>
      </trkpt>
      <trkpt lat="47.130009988322854" lon="-0.156600018963218">
        <ele>55</ele>
        <time>2022-07-13T12:46:19Z</time>
      </trkpt>
      <trkpt lat="47.130039995536208" lon="-0.156619967892766">
        <ele>55</ele>
        <time>2022-07-13T12:46:17Z</time>
      </trkpt>
      <trkpt lat="47.130070002749562" lon="-0.15664997510612">
        <ele>55</ele>
        <time>2022-07-13T12:46:14Z</time>
      </trkpt>
      <trkpt lat="47.130090035498142" lon="-0.15669004060328">
        <ele>55</ele>
        <time>2022-07-13T12:46:11Z</time>
      </trkpt>
      <trkpt lat="47.130109984427691" lon="-0.156719963997602">
        <ele>56</ele>
        <time>2022-07-13T12:46:09Z</time>
      </trkpt>
      <trkpt lat="47.13013001717627" lon="-0.156770003959537">
        <ele>56</ele>
        <time>2022-07-13T12:46:06Z</time>
      </trkpt>
      <trkpt lat="47.130149966105819" lon="-0.156800011172891">
        <ele>56</ele>
        <time>2022-07-13T12:46:03Z</time>
      </trkpt>
      <trkpt lat="47.130169998854399" lon="-0.156839992851019">
        <ele>56</ele>
        <time>2022-07-13T12:46:01Z</time>
      </trkpt>
      <trkpt lat="47.130190031602979" lon="-0.156870000064373">
        <ele>56</ele>
        <time>2022-07-13T12:45:59Z</time>
      </trkpt>
      <trkpt lat="47.130200006067753" lon="-0.156920040026307">
        <ele>57</ele>
        <time>2022-07-13T12:45:57Z</time>
      </trkpt>
      <trkpt lat="47.130220038816333" lon="-0.156960021704435">
        <ele>58</ele>
        <time>2022-07-13T12:45:54Z</time>
      </trkpt>
      <trkpt lat="47.130249962210655" lon="-0.157000003382564">
        <ele>58</ele>
        <time>2022-07-13T12:45:51Z</time>
      </trkpt>
      <trkpt lat="47.130279969424009" lon="-0.157030010595918">
        <ele>58</ele>
        <time>2022-07-13T12:45:49Z</time>
      </trkpt>
      <trkpt lat="47.130300002172589" lon="-0.157060017809272">
        <ele>58</ele>
        <time>2022-07-13T12:45:47Z</time>
      </trkpt>
      <trkpt lat="47.130320034921169" lon="-0.15707996673882">
        <ele>58</ele>
        <time>2022-07-13T12:45:45Z</time>
      </trkpt>
      <trkpt lat="47.130349958315492" lon="-0.157109973952174">
        <ele>57</ele>
        <time>2022-07-13T12:45:42Z</time>
      </trkpt>
      <trkpt lat="47.130369991064072" lon="-0.157130006700754">
        <ele>56</ele>
        <time>2022-07-13T12:45:40Z</time>
      </trkpt>
      <trkpt lat="47.130399998277426" lon="-0.157160013914108">
        <ele>55</ele>
        <time>2022-07-13T12:45:38Z</time>
      </trkpt>
      <trkpt lat="47.1304099727422" lon="-0.157199995592237">
        <ele>54</ele>
        <time>2022-07-13T12:45:35Z</time>
      </trkpt>
      <trkpt lat="47.13043000549078" lon="-0.157239977270365">
        <ele>54</ele>
        <time>2022-07-13T12:45:32Z</time>
      </trkpt>
      <trkpt lat="47.13045003823936" lon="-0.157290017232299">
        <ele>55</ele>
        <time>2022-07-13T12:45:29Z</time>
      </trkpt>
      <trkpt lat="47.130460012704134" lon="-0.157320024445653">
        <ele>55</ele>
        <time>2022-07-13T12:45:27Z</time>
      </trkpt>
      <trkpt lat="47.130479961633682" lon="-0.157360006123781">
        <ele>56</ele>
        <time>2022-07-13T12:45:25Z</time>
      </trkpt>
      <trkpt lat="47.130499994382262" lon="-0.157409962266684">
        <ele>55</ele>
        <time>2022-07-13T12:45:22Z</time>
      </trkpt>
      <trkpt lat="47.130520027130842" lon="-0.157450027763844">
        <ele>54</ele>
        <time>2022-07-13T12:45:19Z</time>
      </trkpt>
      <trkpt lat="47.13053997606039" lon="-0.157490009441972">
        <ele>53</ele>
        <time>2022-07-13T12:45:16Z</time>
      </trkpt>
      <trkpt lat="47.130569983273745" lon="-0.157520016655326">
        <ele>52</ele>
        <time>2022-07-13T12:45:13Z</time>
      </trkpt>
      <trkpt lat="47.130590016022325" lon="-0.157559998333454">
        <ele>52</ele>
        <time>2022-07-13T12:45:11Z</time>
      </trkpt>
      <trkpt lat="47.130609964951873" lon="-0.157599980011582">
        <ele>52</ele>
        <time>2022-07-13T12:45:08Z</time>
      </trkpt>
      <trkpt lat="47.130629997700453" lon="-0.157639961689711">
        <ele>53</ele>
        <time>2022-07-13T12:45:05Z</time>
      </trkpt>
      <trkpt lat="47.130650030449033" lon="-0.157680027186871">
        <ele>53</ele>
        <time>2022-07-13T12:45:02Z</time>
      </trkpt>
      <trkpt lat="47.130680037662387" lon="-0.157710034400225">
        <ele>53</ele>
        <time>2022-07-13T12:44:59Z</time>
      </trkpt>
      <trkpt lat="47.130699986591935" lon="-0.157750016078353">
        <ele>52</ele>
        <time>2022-07-13T12:44:57Z</time>
      </trkpt>
      <trkpt lat="47.130720019340515" lon="-0.157789997756481">
        <ele>52</ele>
        <time>2022-07-13T12:44:54Z</time>
      </trkpt>
      <trkpt lat="47.130739968270063" lon="-0.157829979434609">
        <ele>52</ele>
        <time>2022-07-13T12:44:51Z</time>
      </trkpt>
      <trkpt lat="47.130769975483418" lon="-0.157859986647964">
        <ele>53</ele>
        <time>2022-07-13T12:44:48Z</time>
      </trkpt>
      <trkpt lat="47.130780033767223" lon="-0.157899968326092">
        <ele>55</ele>
        <time>2022-07-13T12:44:45Z</time>
      </trkpt>
      <trkpt lat="47.130810040980577" lon="-0.157950008288026">
        <ele>55</ele>
        <time>2022-07-13T12:44:42Z</time>
      </trkpt>
      <trkpt lat="47.130829989910126" lon="-0.157989989966154">
        <ele>55</ele>
        <time>2022-07-13T12:44:39Z</time>
      </trkpt>
      <trkpt lat="47.130850022658706" lon="-0.158040029928088">
        <ele>56</ele>
        <time>2022-07-13T12:44:36Z</time>
      </trkpt>
      <trkpt lat="47.130869971588254" lon="-0.158080011606216">
        <ele>56</ele>
        <time>2022-07-13T12:44:33Z</time>
      </trkpt>
      <trkpt lat="47.13088002987206" lon="-0.158119993284345">
        <ele>56</ele>
        <time>2022-07-13T12:44:31Z</time>
      </trkpt>
      <trkpt lat="47.130899978801608" lon="-0.158150000497699">
        <ele>57</ele>
        <time>2022-07-13T12:44:29Z</time>
      </trkpt>
      <trkpt lat="47.130929986014962" lon="-0.158170033246279">
        <ele>57</ele>
        <time>2022-07-13T12:44:27Z</time>
      </trkpt>
      <trkpt lat="47.130950018763542" lon="-0.158200040459633">
        <ele>57</ele>
        <time>2022-07-13T12:44:25Z</time>
      </trkpt>
      <trkpt lat="47.13096996769309" lon="-0.158229963853955">
        <ele>56</ele>
        <time>2022-07-13T12:44:23Z</time>
      </trkpt>
      <trkpt lat="47.13099000044167" lon="-0.158259971067309">
        <ele>56</ele>
        <time>2022-07-13T12:44:21Z</time>
      </trkpt>
      <trkpt lat="47.13101003319025" lon="-0.158289978280663">
        <ele>56</ele>
        <time>2022-07-13T12:44:18Z</time>
      </trkpt>
      <trkpt lat="47.131029982119799" lon="-0.158329959958792">
        <ele>55</ele>
        <time>2022-07-13T12:44:15Z</time>
      </trkpt>
      <trkpt lat="47.131050014868379" lon="-0.158370025455952">
        <ele>55</ele>
        <time>2022-07-13T12:44:12Z</time>
      </trkpt>
      <trkpt lat="47.131069963797927" lon="-0.15841000713408">
        <ele>55</ele>
        <time>2022-07-13T12:44:10Z</time>
      </trkpt>
      <trkpt lat="47.131080022081733" lon="-0.158449988812208">
        <ele>55</ele>
        <time>2022-07-13T12:44:07Z</time>
      </trkpt>
      <trkpt lat="47.131110029295087" lon="-0.158489970490336">
        <ele>55</ele>
        <time>2022-07-13T12:44:04Z</time>
      </trkpt>
      <trkpt lat="47.131129978224635" lon="-0.158530035987496">
        <ele>54</ele>
        <time>2022-07-13T12:44:01Z</time>
      </trkpt>
      <trkpt lat="47.131150010973215" lon="-0.158570017665625">
        <ele>54</ele>
        <time>2022-07-13T12:43:58Z</time>
      </trkpt>
      <trkpt lat="47.131180018186569" lon="-0.158609999343753">
        <ele>54</ele>
        <time>2022-07-13T12:43:55Z</time>
      </trkpt>
      <trkpt lat="47.131210025399923" lon="-0.158640006557107">
        <ele>54</ele>
        <time>2022-07-13T12:43:52Z</time>
      </trkpt>
      <trkpt lat="47.131240032613277" lon="-0.158660039305687">
        <ele>53</ele>
        <time>2022-07-13T12:43:49Z</time>
      </trkpt>
      <trkpt lat="47.131270039826632" lon="-0.158679988235235">
        <ele>52</ele>
        <time>2022-07-13T12:43:46Z</time>
      </trkpt>
      <trkpt lat="47.131299963220954" lon="-0.158679988235235">
        <ele>52</ele>
        <time>2022-07-13T12:43:43Z</time>
      </trkpt>
      <trkpt lat="47.131329970434308" lon="-0.158660039305687">
        <ele>51</ele>
        <time>2022-07-13T12:43:39Z</time>
      </trkpt>
      <trkpt lat="47.131350003182888" lon="-0.158630032092333">
        <ele>50</ele>
        <time>2022-07-13T12:43:36Z</time>
      </trkpt>
      <trkpt lat="47.131370035931468" lon="-0.158609999343753">
        <ele>50</ele>
        <time>2022-07-13T12:43:31Z</time>
      </trkpt>
      <trkpt lat="47.131359977647662" lon="-0.158570017665625">
        <ele>49</ele>
        <time>2022-07-13T12:43:27Z</time>
      </trkpt>
      <trkpt lat="47.131380010396242" lon="-0.158519977703691">
        <ele>49</ele>
        <time>2022-07-13T12:43:24Z</time>
      </trkpt>
      <trkpt lat="47.13139995932579" lon="-0.158479996025562">
        <ele>49</ele>
        <time>2022-07-13T12:43:21Z</time>
      </trkpt>
      <trkpt lat="47.13141999207437" lon="-0.158440014347434">
        <ele>49</ele>
        <time>2022-07-13T12:43:18Z</time>
      </trkpt>
      <trkpt lat="47.131429966539145" lon="-0.15841000713408">
        <ele>48</ele>
        <time>2022-07-13T12:43:16Z</time>
      </trkpt>
      <trkpt lat="47.131449999287724" lon="-0.158379999920726">
        <ele>48</ele>
        <time>2022-07-13T12:43:14Z</time>
      </trkpt>
      <trkpt lat="47.131470032036304" lon="-0.158329959958792">
        <ele>47</ele>
        <time>2022-07-13T12:43:11Z</time>
      </trkpt>
      <trkpt lat="47.131489980965853" lon="-0.158300036564469">
        <ele>46</ele>
        <time>2022-07-13T12:43:07Z</time>
      </trkpt>
      <trkpt lat="47.131510013714433" lon="-0.158259971067309">
        <ele>47</ele>
        <time>2022-07-13T12:43:04Z</time>
      </trkpt>
      <trkpt lat="47.131519988179207" lon="-0.158210014924407">
        <ele>47</ele>
        <time>2022-07-13T12:43:01Z</time>
      </trkpt>
      <trkpt lat="47.131529962643981" lon="-0.158159974962473">
        <ele>46</ele>
        <time>2022-07-13T12:42:58Z</time>
      </trkpt>
      <trkpt lat="47.131540020927787" lon="-0.158110018819571">
        <ele>44</ele>
        <time>2022-07-13T12:42:55Z</time>
      </trkpt>
      <trkpt lat="47.131549995392561" lon="-0.158070037141442">
        <ele>43</ele>
        <time>2022-07-13T12:42:53Z</time>
      </trkpt>
      <trkpt lat="47.131559969857335" lon="-0.158029971644282">
        <ele>42</ele>
        <time>2022-07-13T12:42:51Z</time>
      </trkpt>
      <trkpt lat="47.131580002605915" lon="-0.15798001550138">
        <ele>42</ele>
        <time>2022-07-13T12:42:48Z</time>
      </trkpt>
      <trkpt lat="47.131600035354495" lon="-0.157940033823252">
        <ele>43</ele>
        <time>2022-07-13T12:42:45Z</time>
      </trkpt>
      <trkpt lat="47.131619984284043" lon="-0.157899968326092">
        <ele>46</ele>
        <time>2022-07-13T12:42:42Z</time>
      </trkpt>
      <trkpt lat="47.131640017032623" lon="-0.157869961112738">
        <ele>49</ele>
        <time>2022-07-13T12:42:38Z</time>
      </trkpt>
      <trkpt lat="47.131659965962172" lon="-0.157820004969835">
        <ele>49</ele>
        <time>2022-07-13T12:42:34Z</time>
      </trkpt>
      <trkpt lat="47.131670024245977" lon="-0.157769965007901">
        <ele>49</ele>
        <time>2022-07-13T12:42:31Z</time>
      </trkpt>
      <trkpt lat="47.131700031459332" lon="-0.157740041613579">
        <ele>49</ele>
        <time>2022-07-13T12:42:28Z</time>
      </trkpt>
      <trkpt lat="47.13171998038888" lon="-0.157699976116419">
        <ele>50</ele>
        <time>2022-07-13T12:42:24Z</time>
      </trkpt>
      <trkpt lat="47.131730038672686" lon="-0.157659994438291">
        <ele>48</ele>
        <time>2022-07-13T12:42:21Z</time>
      </trkpt>
      <trkpt lat="47.131749987602234" lon="-0.157610038295388">
        <ele>48</ele>
        <time>2022-07-13T12:42:18Z</time>
      </trkpt>
      <trkpt lat="47.131759962067008" lon="-0.157569972798228">
        <ele>47</ele>
        <time>2022-07-13T12:42:15Z</time>
      </trkpt>
      <trkpt lat="47.131770020350814" lon="-0.1575299911201">
        <ele>47</ele>
        <time>2022-07-13T12:42:12Z</time>
      </trkpt>
      <trkpt lat="47.131800027564168" lon="-0.157499983906746">
        <ele>47</ele>
        <time>2022-07-13T12:42:09Z</time>
      </trkpt>
      <trkpt lat="47.131819976493716" lon="-0.157480034977198">
        <ele>47</ele>
        <time>2022-07-13T12:42:06Z</time>
      </trkpt>
      <trkpt lat="47.131830034777522" lon="-0.157460002228618">
        <ele>47</ele>
        <time>2022-07-13T12:41:57Z</time>
      </trkpt>
      <trkpt lat="47.131819976493716" lon="-0.157450027763844">
        <ele>47</ele>
        <time>2022-07-13T12:41:43Z</time>
      </trkpt>
      <trkpt lat="47.131830034777522" lon="-0.157420020550489">
        <ele>47</ele>
        <time>2022-07-13T12:41:39Z</time>
      </trkpt>
      <trkpt lat="47.13184998370707" lon="-0.157380038872361">
        <ele>49</ele>
        <time>2022-07-13T12:41:36Z</time>
      </trkpt>
      <trkpt lat="47.131859958171844" lon="-0.157339973375201">
        <ele>55</ele>
        <time>2022-07-13T12:41:25Z</time>
      </trkpt>
      <trkpt lat="47.131859958171844" lon="-0.157299991697073">
        <ele>58</ele>
        <time>2022-07-13T12:41:12Z</time>
      </trkpt>
      <trkpt lat="47.13187001645565" lon="-0.157250035554171">
        <ele>58</ele>
        <time>2022-07-13T12:41:09Z</time>
      </trkpt>
      <trkpt lat="47.13187001645565" lon="-0.157220028340817">
        <ele>56</ele>
        <time>2022-07-13T12:41:08Z</time>
      </trkpt>
      <trkpt lat="47.131889965385199" lon="-0.157290017232299">
        <ele>48</ele>
        <time>2022-07-13T12:40:59Z</time>
      </trkpt>
      <trkpt lat="47.131900023669004" lon="-0.157250035554171">
        <ele>47</ele>
        <time>2022-07-13T12:40:56Z</time>
      </trkpt>
      <trkpt lat="47.131919972598553" lon="-0.157209970057011">
        <ele>46</ele>
        <time>2022-07-13T12:40:53Z</time>
      </trkpt>
      <trkpt lat="47.131940005347133" lon="-0.157190021127462">
        <ele>45</ele>
        <time>2022-07-13T12:40:50Z</time>
      </trkpt>
      <trkpt lat="47.131949979811907" lon="-0.157169988378882">
        <ele>43</ele>
        <time>2022-07-13T12:40:05Z</time>
      </trkpt>
    </trkseg>
  </trk>

</gpx>